Observation data for Menard on 05/24/2019      Previous  Date  Next       Current Mesonet Observations  Soil Data  Daily Summary Page  Observations in Plain Language
KMD1 240500Z 15013KT 25/21 A2994 RMK A01 T02490205  RH  077%=      5-min Rain = 0
KMD1 240501Z 15012KT 25/21 A2994 RMK A01 T02490205  RH  077%=      5-min Rain = 0
KMD1 240502Z 15009KT 25/21 A2994 RMK A01 T02490205  RH  077%=      5-min Rain = 0
KMD1 240503Z 15011KT 25/21 A2994 RMK A01 T02480205  RH  077%=      5-min Rain = 0
KMD1 240504Z 14010KT 25/21 A2994 RMK A01 T02480206  RH  077%=      5-min Rain = 0
KMD1 240505Z 14011KT 25/21 A2994 RMK A01 T02470206  RH  078%=      5-min Rain = 0
KMD1 240506Z 14013KT 25/21 A2994 RMK A01 T02470205  RH  078%=      5-min Rain = 0
KMD1 240507Z 15011KT 25/21 A2994 RMK A01 T02470205  RH  078%=      5-min Rain = 0
KMD1 240508Z 14013KT 25/21 A2994 RMK A01 T02470206  RH  078%=      5-min Rain = 0
KMD1 240509Z 15012G17KT 25/21 A2994 RMK A01 T02470205  RH  078%=      5-min Rain = 0
KMD1 240510Z 14012KT 25/21 A2994 RMK A01 T02470205  RH  078%=      5-min Rain = 0
KMD1 240511Z 14012KT 25/21 A2994 RMK A01 T02470206  RH  078%=      5-min Rain = 0
KMD1 240512Z 15012KT 25/21 A2994 RMK A01 T02470206  RH  078%=      5-min Rain = 0
KMD1 240513Z 14013KT 25/21 A2994 RMK A01 T02470206  RH  078%=      5-min Rain = 0
KMD1 240514Z 15014KT 25/21 A2994 RMK A01 T02470206  RH  078%=      5-min Rain = 0
KMD1 240515Z 14012KT 25/21 A2994 RMK A01 T02470206  RH  078%=      5-min Rain = 0
KMD1 240516Z 15013KT 25/21 A2994 RMK A01 T02470206  RH  078%=      5-min Rain = 0
KMD1 240517Z 14015KT 25/21 A2994 RMK A01 T02470206  RH  078%=      5-min Rain = 0
KMD1 240518Z 14014KT 25/21 A2994 RMK A01 T02470205  RH  078%=      5-min Rain = 0
KMD1 240519Z 14012KT 25/21 A2994 RMK A01 T02480206  RH  078%=      5-min Rain = 0
KMD1 240520Z 14010KT 25/21 A2994 RMK A01 T02470206  RH  078%=      5-min Rain = 0
KMD1 240521Z 15012G17KT 25/21 A2994 RMK A01 T02470206  RH  078%=      5-min Rain = 0
KMD1 240522Z 14012KT 25/21 A2994 RMK A01 T02470206  RH  078%=      5-min Rain = 0
KMD1 240523Z 15009KT 25/21 A2994 RMK A01 T02460205  RH  078%=      5-min Rain = 0
KMD1 240524Z 14016G25KT 25/21 A2994 RMK A01 T02470206  RH  078%=      5-min Rain = 0
KMD1 240525Z 15016KT 25/21 A2994 RMK A01 T02470206  RH  078%=      5-min Rain = 0
KMD1 240526Z 15014KT 25/21 A2994 RMK A01 T02470206  RH  078%=      5-min Rain = 0
KMD1 240527Z 15013KT 25/21 A2994 RMK A01 T02470206  RH  078%=      5-min Rain = 0
KMD1 240528Z 14013KT 25/21 A2994 RMK A01 T02470206  RH  078%=      5-min Rain = 0
KMD1 240529Z 14016KT 25/21 A2994 RMK A01 T02480206  RH  078%=      5-min Rain = 0
KMD1 240530Z 15018KT 25/21 A2994 RMK A01 T02470206  RH  077%=      5-min Rain = 0
KMD1 240531Z 15014KT 25/21 A2994 RMK A01 T02480205  RH  077%=      5-min Rain = 0
KMD1 240532Z 15011KT 25/21 A2994 RMK A01 T02480206  RH  077%=      5-min Rain = 0
KMD1 240533Z 15017G23KT 25/21 A2994 RMK A01 T02480206  RH  077%=      5-min Rain = 0
KMD1 240534Z 14013KT 25/21 A2994 RMK A01 T02480205  RH  077%=      5-min Rain = 0
KMD1 240535Z 14010KT 25/21 A2994 RMK A01 T02490206  RH  077%=      5-min Rain = 0
KMD1 240536Z 14010G16KT 25/21 A2994 RMK A01 T02480206  RH  077%=      5-min Rain = 0
KMD1 240537Z 14015G21KT 25/21 A2994 RMK A01 T02480206  RH  077%=      5-min Rain = 0
KMD1 240538Z 14014G20KT 25/21 A2994 RMK A01 T02470205  RH  077%=      5-min Rain = 0
KMD1 240539Z 15016G21KT 25/21 A2994 RMK A01 T02470205  RH  077%=      5-min Rain = 0
KMD1 240540Z 15014KT 25/20 A2994 RMK A01 T02470204  RH  077%=      5-min Rain = 0
KMD1 240541Z 16015G20KT 25/21 A2994 RMK A01 T02470205  RH  077%=      5-min Rain = 0
KMD1 240542Z 16016KT 25/20 A2994 RMK A01 T02470204  RH  077%=      5-min Rain = 0
KMD1 240543Z 15013G18KT 25/20 A2994 RMK A01 T02470204  RH  077%=      5-min Rain = 0
KMD1 240544Z 15013KT 25/21 A2994 RMK A01 T02470205  RH  078%=      5-min Rain = 0
KMD1 240545Z 14014G19KT 25/20 A2994 RMK A01 T02460204  RH  078%=      5-min Rain = 0
KMD1 240546Z 15017G23KT 25/20 A2993 RMK A01 T02460204  RH  078%=      5-min Rain = 0
KMD1 240547Z 15011KT 25/20 A2994 RMK A01 T02460204  RH  077%=      5-min Rain = 0
KMD1 240548Z 14011KT 25/20 A2994 RMK A01 T02460204  RH  078%=      5-min Rain = 0
KMD1 240549Z 14012KT 25/20 A2994 RMK A01 T02450204  RH  078%=      5-min Rain = 0
KMD1 240550Z 14010KT 24/20 A2994 RMK A01 T02440204  RH  078%=      5-min Rain = 0
KMD1 240551Z 15011KT 24/20 A2994 RMK A01 T02440204  RH  078%=      5-min Rain = 0
KMD1 240552Z 15011KT 24/20 A2994 RMK A01 T02440204  RH  079%=      5-min Rain = 0
KMD1 240553Z 15010KT 24/20 A2994 RMK A01 T02430204  RH  079%=      5-min Rain = 0
KMD1 240554Z 15011KT 24/20 A2994 RMK A01 T02430204  RH  079%=      5-min Rain = 0
KMD1 240555Z 14012KT 24/20 A2994 RMK A01 T02430204  RH  079%=      5-min Rain = 0
KMD1 240556Z 14013KT 24/21 A2994 RMK A01 T02440205  RH  079%=      5-min Rain = 0
KMD1 240557Z 15012KT 24/20 A2994 RMK A01 T02430204  RH  079%=      5-min Rain = 0
KMD1 240558Z 15014KT 24/20 A2994 RMK A01 T02440204  RH  079%=      5-min Rain = 0
KMD1 240559Z 14015KT 24/20 A2994 RMK A01 T02440204  RH  079%=      5-min Rain = 0
KMD1 240600Z 14015KT 24/20 A2994 RMK A01 T02440204  RH  078%=      5-min Rain = 0
KMD1 240601Z 15015KT 24/20 A2994 RMK A01 T02440204  RH  079%=      5-min Rain = 0
KMD1 240602Z 14015KT 24/20 A2993 RMK A01 T02440204  RH  079%=      5-min Rain = 0
KMD1 240603Z 14013KT 24/20 A2993 RMK A01 T02440204  RH  079%=      5-min Rain = 0
KMD1 240604Z 15012KT 24/21 A2993 RMK A01 T02440205  RH  079%=      5-min Rain = 0
KMD1 240605Z 14011KT 24/21 A2993 RMK A01 T02430205  RH  079%=      5-min Rain = 0
KMD1 240606Z 14012KT 24/21 A2993 RMK A01 T02430205  RH  079%=      5-min Rain = 0
KMD1 240607Z 15013KT 24/21 A2993 RMK A01 T02420205  RH  079%=      5-min Rain = 0
KMD1 240608Z 15012KT 24/20 A2993 RMK A01 T02420204  RH  079%=      5-min Rain = 0
KMD1 240609Z 14011KT 24/21 A2993 RMK A01 T02420205  RH  079%=      5-min Rain = 0
KMD1 240610Z 15016KT 24/21 A2993 RMK A01 T02430205  RH  079%=      5-min Rain = 0
KMD1 240611Z 14015G20KT 24/20 A2994 RMK A01 T02430204  RH  079%=      5-min Rain = 0
KMD1 240612Z 15011KT 24/21 A2994 RMK A01 T02430205  RH  079%=      5-min Rain = 0
KMD1 240613Z 15018KT 24/21 A2994 RMK A01 T02430205  RH  079%=      5-min Rain = 0
KMD1 240614Z 16017KT 24/20 A2993 RMK A01 T02430204  RH  079%=      5-min Rain = 0
KMD1 240615Z 16012KT 24/20 A2994 RMK A01 T02440204  RH  078%=      5-min Rain = 0
KMD1 240616Z 14009KT 24/21 A2994 RMK A01 T02440205  RH  079%=      5-min Rain = 0
KMD1 240617Z 15013KT 24/21 A2994 RMK A01 T02430205  RH  079%=      5-min Rain = 0
KMD1 240618Z 14014KT 24/21 A2994 RMK A01 T02430205  RH  079%=      5-min Rain = 0
KMD1 240619Z 15012KT 24/21 A2994 RMK A01 T02420205  RH  079%=      5-min Rain = 0
KMD1 240620Z 15012G17KT 24/21 A2994 RMK A01 T02430205  RH  079%=      5-min Rain = 0
KMD1 240621Z 15011KT 24/20 A2994 RMK A01 T02420204  RH  079%=      5-min Rain = 0
KMD1 240622Z 14012KT 24/20 A2994 RMK A01 T02420204  RH  079%=      5-min Rain = 0
KMD1 240623Z 14012KT 24/21 A2994 RMK A01 T02420205  RH  080%=      5-min Rain = 0
KMD1 240624Z 14012KT 24/20 A2993 RMK A01 T02410204  RH  080%=      5-min Rain = 0
KMD1 240625Z 14011G16KT 24/20 A2993 RMK A01 T02420204  RH  079%=      5-min Rain = 0
KMD1 240626Z 15011KT 24/21 A2993 RMK A01 T02420205  RH  080%=      5-min Rain = 0
KMD1 240627Z 15011KT 24/21 A2993 RMK A01 T02420205  RH  080%=      5-min Rain = 0
KMD1 240628Z 15009KT 24/20 A2993 RMK A01 T02410204  RH  080%=      5-min Rain = 0
KMD1 240629Z 15010G15KT 24/20 A2993 RMK A01 T02410204  RH  080%=      5-min Rain = 0
KMD1 240630Z 15013KT 24/20 A2993 RMK A01 T02410204  RH  080%=      5-min Rain = 0
KMD1 240631Z 15009KT 24/20 A2993 RMK A01 T02410204  RH  080%=      5-min Rain = 0
KMD1 240632Z 15011KT 24/20 A2993 RMK A01 T02410204  RH  080%=      5-min Rain = 0
KMD1 240633Z 14015KT 24/20 A2993 RMK A01 T02410204  RH  080%=      5-min Rain = 0
KMD1 240634Z 15010KT 24/20 A2993 RMK A01 T02410204  RH  080%=      5-min Rain = 0
KMD1 240635Z 15011KT 24/20 A2993 RMK A01 T02410204  RH  080%=      5-min Rain = 0
KMD1 240636Z 15009KT 24/20 A2993 RMK A01 T02410204  RH  080%=      5-min Rain = 0
KMD1 240637Z 15009KT 24/20 A2993 RMK A01 T02400204  RH  080%=      5-min Rain = 0
KMD1 240638Z 16011KT 24/20 A2993 RMK A01 T02400204  RH  080%=      5-min Rain = 0
KMD1 240639Z 16008KT 24/20 A2993 RMK A01 T02400204  RH  080%=      5-min Rain = 0
KMD1 240640Z 15011KT 24/20 A2993 RMK A01 T02400203  RH  080%=      5-min Rain = 0
KMD1 240641Z 15011KT 24/20 A2993 RMK A01 T02400203  RH  080%=      5-min Rain = 0
KMD1 240642Z 15016G21KT 24/20 A2993 RMK A01 T02400203  RH  079%=      5-min Rain = 0
KMD1 240643Z 15015G20KT 24/20 A2993 RMK A01 T02410203  RH  079%=      5-min Rain = 0
KMD1 240644Z 15014KT 24/20 A2993 RMK A01 T02420203  RH  079%=      5-min Rain = 0
KMD1 240645Z 16012G17KT 24/20 A2993 RMK A01 T02420203  RH  079%=      5-min Rain = 0
KMD1 240646Z 16012KT 24/20 A2993 RMK A01 T02420203  RH  079%=      5-min Rain = 0
KMD1 240647Z 16009KT 24/20 A2993 RMK A01 T02420203  RH  079%=      5-min Rain = 0
KMD1 240648Z 15009KT 24/20 A2993 RMK A01 T02410203  RH  079%=      5-min Rain = 0
KMD1 240649Z 16009KT 24/20 A2993 RMK A01 T02410203  RH  080%=      5-min Rain = 0
KMD1 240650Z 14007KT 24/20 A2993 RMK A01 T02410203  RH  080%=      5-min Rain = 0
KMD1 240651Z 15009KT 24/20 A2993 RMK A01 T02400203  RH  080%=      5-min Rain = 0
KMD1 240652Z 15010KT 24/20 A2993 RMK A01 T02400203  RH  080%=      5-min Rain = 0
KMD1 240653Z 16012G17KT 24/20 A2993 RMK A01 T02390203  RH  080%=      5-min Rain = 0
KMD1 240654Z 15014KT 24/20 A2993 RMK A01 T02400202  RH  080%=      5-min Rain = 0
KMD1 240655Z 15013G18KT 24/20 A2993 RMK A01 T02410203  RH  079%=      5-min Rain = 0
KMD1 240656Z 16016KT 24/20 A2993 RMK A01 T02410203  RH  079%=      5-min Rain = 0
KMD1 240657Z 16010KT 24/20 A2993 RMK A01 T02420202  RH  078%=      5-min Rain = 0
KMD1 240658Z 15009KT 24/20 A2993 RMK A01 T02430203  RH  078%=      5-min Rain = 0
KMD1 240659Z 15009KT 24/20 A2993 RMK A01 T02420204  RH  079%=      5-min Rain = 0
KMD1 240700Z 16008KT 24/20 A2993 RMK A01 T02410203  RH  080%=      5-min Rain = 0
KMD1 240701Z 15009KT 24/20 A2992 RMK A01 T02400203  RH  080%=      5-min Rain = 0
KMD1 240702Z 16008KT 24/20 A2993 RMK A01 T02400202  RH  080%=      5-min Rain = 0
KMD1 240703Z 15006G11KT 24/20 A2992 RMK A01 T02400202  RH  080%=      5-min Rain = 0
KMD1 240704Z 15008KT 24/20 A2992 RMK A01 T02390203  RH  080%=      5-min Rain = 0
KMD1 240705Z 15009KT 24/20 A2992 RMK A01 T02390203  RH  080%=      5-min Rain = 0
KMD1 240706Z 15010KT 24/20 A2992 RMK A01 T02390202  RH  080%=      5-min Rain = 0
KMD1 240707Z 16011KT 24/20 A2992 RMK A01 T02400202  RH  080%=      5-min Rain = 0
KMD1 240708Z 16011KT 24/20 A2992 RMK A01 T02400202  RH  079%=      5-min Rain = 0
KMD1 240709Z 16014KT 24/20 A2992 RMK A01 T02410202  RH  079%=      5-min Rain = 0
KMD1 240710Z 15012KT 24/20 A2992 RMK A01 T02410202  RH  079%=      5-min Rain = 0
KMD1 240711Z 16012KT 24/20 A2992 RMK A01 T02410202  RH  079%=      5-min Rain = 0
KMD1 240712Z 15010KT 24/20 A2992 RMK A01 T02410202  RH  079%=      5-min Rain = 0
KMD1 240713Z 16011KT 24/20 A2992 RMK A01 T02410203  RH  079%=      5-min Rain = 0
KMD1 240714Z 16013KT 24/20 A2992 RMK A01 T02410202  RH  079%=      5-min Rain = 0
KMD1 240715Z 15008KT 24/20 A2992 RMK A01 T02420202  RH  079%=      5-min Rain = 0
KMD1 240716Z 16008KT 24/20 A2992 RMK A01 T02420203  RH  079%=      5-min Rain = 0
KMD1 240717Z 17009KT 24/20 A2992 RMK A01 T02420203  RH  079%=      5-min Rain = 0
KMD1 240718Z 16011KT 24/20 A2992 RMK A01 T02410203  RH  079%=      5-min Rain = 0
KMD1 240719Z 16011KT 24/20 A2992 RMK A01 T02410203  RH  079%=      5-min Rain = 0
KMD1 240720Z 15012G18KT 24/20 A2992 RMK A01 T02420202  RH  079%=      5-min Rain = 0
KMD1 240721Z 15014KT 24/20 A2992 RMK A01 T02420202  RH  078%=      5-min Rain = 0
KMD1 240722Z 16013KT 24/20 A2992 RMK A01 T02430202  RH  078%=      5-min Rain = 0
KMD1 240723Z 16012KT 24/20 A2992 RMK A01 T02430202  RH  078%=      5-min Rain = 0
KMD1 240724Z 16011G17KT 24/20 A2992 RMK A01 T02440202  RH  078%=      5-min Rain = 0
KMD1 240725Z 15013KT 24/20 A2992 RMK A01 T02440202  RH  078%=      5-min Rain = 0
KMD1 240726Z 15014KT 24/20 A2992 RMK A01 T02440202  RH  078%=      5-min Rain = 0
KMD1 240727Z 15011KT 24/20 A2992 RMK A01 T02440202  RH  078%=      5-min Rain = 0
KMD1 240728Z 15010KT 24/20 A2992 RMK A01 T02430202  RH  078%=      5-min Rain = 0
KMD1 240729Z 16014KT 24/20 A2992 RMK A01 T02430202  RH  078%=      5-min Rain = 0
KMD1 240730Z 16017KT 24/20 A2992 RMK A01 T02420202  RH  078%=      5-min Rain = 0
KMD1 240731Z 17015KT 24/20 A2992 RMK A01 T02430201  RH  078%=      5-min Rain = 0
KMD1 240732Z 15013G18KT 24/20 A2992 RMK A01 T02430201  RH  077%=      5-min Rain = 0
KMD1 240733Z 16013KT 24/20 A2992 RMK A01 T02440202  RH  078%=      5-min Rain = 0
KMD1 240734Z 15011KT 24/20 A2992 RMK A01 T02440202  RH  078%=      5-min Rain = 0
KMD1 240735Z 16012KT 24/20 A2992 RMK A01 T02430202  RH  078%=      5-min Rain = 0
KMD1 240736Z 16011KT 24/20 A2992 RMK A01 T02430202  RH  078%=      5-min Rain = 0
KMD1 240737Z 15010KT 24/20 A2992 RMK A01 T02430201  RH  078%=      5-min Rain = 0
KMD1 240738Z 16009KT 24/20 A2992 RMK A01 T02430202  RH  078%=      5-min Rain = 0
KMD1 240739Z 17014KT 24/20 A2992 RMK A01 T02420202  RH  078%=      5-min Rain = 0
KMD1 240740Z 15010KT 24/20 A2992 RMK A01 T02420202  RH  078%=      5-min Rain = 0
KMD1 240741Z 16010KT 24/20 A2992 RMK A01 T02420202  RH  078%=      5-min Rain = 0
KMD1 240742Z 16011KT 24/20 A2992 RMK A01 T02410201  RH  078%=      5-min Rain = 0
KMD1 240743Z 16013KT 24/20 A2992 RMK A01 T02410200  RH  078%=      5-min Rain = 0
KMD1 240744Z 15013KT 24/20 A2992 RMK A01 T02420200  RH  078%=      5-min Rain = 0
KMD1 240745Z 16013KT 24/20 A2992 RMK A01 T02420200  RH  077%=      5-min Rain = 0
KMD1 240746Z 15013KT 24/20 A2992 RMK A01 T02430201  RH  077%=      5-min Rain = 0
KMD1 240747Z 15012G18KT 24/20 A2992 RMK A01 T02420200  RH  077%=      5-min Rain = 0
KMD1 240748Z 16014KT 24/20 A2992 RMK A01 T02430201  RH  077%=      5-min Rain = 0
KMD1 240749Z 14013KT 24/20 A2992 RMK A01 T02420200  RH  077%=      5-min Rain = 0
KMD1 240750Z 15011KT 24/20 A2992 RMK A01 T02430200  RH  077%=      5-min Rain = 0
KMD1 240751Z 16012KT 24/20 A2992 RMK A01 T02430200  RH  077%=      5-min Rain = 0
KMD1 240752Z 16015KT 24/20 A2992 RMK A01 T02430200  RH  077%=      5-min Rain = 0
KMD1 240753Z 15013KT 24/20 A2992 RMK A01 T02430200  RH  077%=      5-min Rain = 0
KMD1 240754Z 16012G18KT 24/20 A2992 RMK A01 T02430200  RH  077%=      5-min Rain = 0
KMD1 240755Z 15015KT 24/20 A2991 RMK A01 T02420200  RH  077%=      5-min Rain = 0
KMD1 240756Z 15016KT 24/20 A2991 RMK A01 T02430199  RH  077%=      5-min Rain = 0
KMD1 240757Z 16017KT 24/20 A2991 RMK A01 T02430199  RH  076%=      5-min Rain = 0
KMD1 240758Z 15013KT 24/20 A2991 RMK A01 T02440199  RH  076%=      5-min Rain = 0
KMD1 240759Z 16013KT 24/20 A2991 RMK A01 T02440199  RH  076%=      5-min Rain = 0
KMD1 240800Z 17015G20KT 24/20 A2991 RMK A01 T02440200  RH  076%=      5-min Rain = 0
KMD1 240801Z 15012KT 24/20 A2991 RMK A01 T02440200  RH  076%=      5-min Rain = 0
KMD1 240802Z 15013KT 24/20 A2991 RMK A01 T02440200  RH  077%=      5-min Rain = 0
KMD1 240803Z 15012KT 24/20 A2991 RMK A01 T02430200  RH  077%=      5-min Rain = 0
KMD1 240804Z 16010KT 24/20 A2991 RMK A01 T02430200  RH  077%=      5-min Rain = 0
KMD1 240805Z 15010KT 24/20 A2991 RMK A01 T02430200  RH  077%=      5-min Rain = 0
KMD1 240806Z 15009KT 24/20 A2992 RMK A01 T02430200  RH  077%=      5-min Rain = 0
KMD1 240807Z 15014G20KT 24/20 A2991 RMK A01 T02430200  RH  077%=      5-min Rain = 0
KMD1 240808Z 17015G21KT 24/20 A2991 RMK A01 T02420199  RH  077%=      5-min Rain = 0
KMD1 240809Z 15010KT 24/20 A2991 RMK A01 T02430199  RH  077%=      5-min Rain = 0
KMD1 240810Z 16009KT 24/20 A2992 RMK A01 T02430200  RH  077%=      5-min Rain = 0
KMD1 240811Z 16010KT 24/20 A2992 RMK A01 T02420200  RH  077%=      5-min Rain = 0
KMD1 240812Z 16012KT 24/20 A2992 RMK A01 T02420200  RH  077%=      5-min Rain = 0
KMD1 240813Z 16011KT 24/20 A2992 RMK A01 T02410199  RH  077%=      5-min Rain = 0
KMD1 240814Z 16010KT 24/20 A2992 RMK A01 T02410199  RH  077%=      5-min Rain = 0
KMD1 240815Z 15011KT 24/20 A2992 RMK A01 T02410199  RH  077%=      5-min Rain = 0
KMD1 240816Z 17013G18KT 24/20 A2992 RMK A01 T02410199  RH  077%=      5-min Rain = 0
KMD1 240817Z 16012G17KT 24/20 A2992 RMK A01 T02420199  RH  077%=      5-min Rain = 0
KMD1 240818Z 16010KT 24/20 A2992 RMK A01 T02420200  RH  077%=      5-min Rain = 0
KMD1 240819Z 16009KT 24/20 A2992 RMK A01 T02420200  RH  077%=      5-min Rain = 0
KMD1 240820Z 16011KT 24/20 A2992 RMK A01 T02420201  RH  078%=      5-min Rain = 0
KMD1 240821Z 18012KT 24/20 A2992 RMK A01 T02420200  RH  078%=      5-min Rain = 0
KMD1 240822Z 17012KT 24/20 A2992 RMK A01 T02420200  RH  077%=      5-min Rain = 0
KMD1 240823Z 16011KT 24/20 A2992 RMK A01 T02410199  RH  077%=      5-min Rain = 0
KMD1 240824Z 17010KT 24/20 A2992 RMK A01 T02420200  RH  077%=      5-min Rain = 0
KMD1 240825Z 17013KT 24/20 A2992 RMK A01 T02420200  RH  078%=      5-min Rain = 0
KMD1 240826Z 17011KT 24/20 A2992 RMK A01 T02410199  RH  077%=      5-min Rain = 0
KMD1 240827Z 15015G21KT 24/20 A2992 RMK A01 T02420200  RH  077%=      5-min Rain = 0
KMD1 240828Z 16015KT 24/20 A2992 RMK A01 T02420199  RH  077%=      5-min Rain = 0
KMD1 240829Z 16013G18KT 24/20 A2992 RMK A01 T02430199  RH  077%=      5-min Rain = 0
KMD1 240830Z 16010G15KT 24/20 A2992 RMK A01 T02430200  RH  077%=      5-min Rain = 0
KMD1 240831Z 16010KT 24/20 A2992 RMK A01 T02430200  RH  077%=      5-min Rain = 0
KMD1 240832Z 16010KT 24/20 A2992 RMK A01 T02430200  RH  077%=      5-min Rain = 0
KMD1 240833Z 15010G17KT 24/20 A2992 RMK A01 T02420200  RH  077%=      5-min Rain = 0
KMD1 240834Z 16014KT 24/20 A2992 RMK A01 T02420200  RH  077%=      5-min Rain = 0
KMD1 240835Z 16011KT 24/20 A2992 RMK A01 T02410199  RH  077%=      5-min Rain = 0
KMD1 240836Z 15009KT 24/20 A2992 RMK A01 T02420200  RH  078%=      5-min Rain = 0
KMD1 240837Z 16012KT 24/20 A2992 RMK A01 T02410200  RH  078%=      5-min Rain = 0
KMD1 240838Z 16012KT 24/20 A2992 RMK A01 T02410199  RH  078%=      5-min Rain = 0
KMD1 240839Z 16013KT 24/20 A2992 RMK A01 T02420200  RH  077%=      5-min Rain = 0
KMD1 240840Z 16014KT 24/20 A2992 RMK A01 T02420199  RH  077%=      5-min Rain = 0
KMD1 240841Z 17012KT 24/20 A2992 RMK A01 T02430200  RH  077%=      5-min Rain = 0
KMD1 240842Z 17012G17KT 24/20 A2992 RMK A01 T02420200  RH  077%=      5-min Rain = 0
KMD1 240843Z 16014KT 24/20 A2992 RMK A01 T02420200  RH  077%=      5-min Rain = 0
KMD1 240844Z 15015KT 24/20 A2992 RMK A01 T02420200  RH  077%=      5-min Rain = 0
KMD1 240845Z 16012KT 24/20 A2992 RMK A01 T02420199  RH  077%=      5-min Rain = 0
KMD1 240846Z 16012G17KT 24/20 A2992 RMK A01 T02420199  RH  077%=      5-min Rain = 0
KMD1 240847Z 16010KT 24/20 A2992 RMK A01 T02420200  RH  077%=      5-min Rain = 0
KMD1 240848Z 16011KT 24/20 A2992 RMK A01 T02420200  RH  077%=      5-min Rain = 0
KMD1 240849Z 15014G19KT 24/20 A2992 RMK A01 T02410200  RH  078%=      5-min Rain = 0
KMD1 240850Z 16014KT 24/20 A2992 RMK A01 T02410199  RH  077%=      5-min Rain = 0
KMD1 240851Z 16012KT 24/20 A2992 RMK A01 T02420199  RH  077%=      5-min Rain = 0
KMD1 240852Z 17011KT 24/20 A2992 RMK A01 T02420200  RH  077%=      5-min Rain = 0
KMD1 240853Z 16012KT 24/20 A2992 RMK A01 T02420199  RH  077%=      5-min Rain = 0
KMD1 240854Z 15017KT 24/20 A2992 RMK A01 T02420199  RH  077%=      5-min Rain = 0
KMD1 240855Z 16019KT 24/20 A2992 RMK A01 T02420198  RH  077%=      5-min Rain = 0
KMD1 240856Z 17014KT 24/20 A2992 RMK A01 T02420199  RH  077%=      5-min Rain = 0
KMD1 240857Z 16014KT 24/20 A2992 RMK A01 T02430199  RH  077%=      5-min Rain = 0
KMD1 240858Z 16012G17KT 24/20 A2992 RMK A01 T02420199  RH  077%=      5-min Rain = 0
KMD1 240859Z 17013KT 24/20 A2992 RMK A01 T02420199  RH  077%=      5-min Rain = 0
KMD1 240900Z 16014KT 24/20 A2992 RMK A01 T02420200  RH  077%=      5-min Rain = 0
KMD1 240901Z 16014KT 24/20 A2992 RMK A01 T02420199  RH  077%=      5-min Rain = 0
KMD1 240902Z 16013KT 24/20 A2992 RMK A01 T02420199  RH  077%=      5-min Rain = 0
KMD1 240903Z 16010KT 24/20 A2992 RMK A01 T02420199  RH  077%=      5-min Rain = 0
KMD1 240904Z 16012G17KT 24/20 A2993 RMK A01 T02420199  RH  077%=      5-min Rain = 0
KMD1 240905Z 15011KT 24/20 A2992 RMK A01 T02420200  RH  077%=      5-min Rain = 0
KMD1 240906Z 16009G15KT 24/20 A2992 RMK A01 T02420200  RH  077%=      5-min Rain = 0
KMD1 240907Z 17012KT 24/20 A2992 RMK A01 T02420200  RH  077%=      5-min Rain = 0
KMD1 240908Z 16011KT 24/20 A2992 RMK A01 T02420199  RH  077%=      5-min Rain = 0
KMD1 240909Z 18010KT 24/20 A2993 RMK A01 T02420199  RH  077%=      5-min Rain = 0
KMD1 240910Z 16010KT 24/20 A2993 RMK A01 T02410200  RH  078%=      5-min Rain = 0
KMD1 240911Z 15010KT 24/20 A2993 RMK A01 T02410200  RH  078%=      5-min Rain = 0
KMD1 240912Z 16011KT 24/20 A2993 RMK A01 T02410199  RH  078%=      5-min Rain = 0
KMD1 240913Z 17014KT 24/20 A2993 RMK A01 T02410200  RH  078%=      5-min Rain = 0
KMD1 240914Z 17013KT 24/20 A2993 RMK A01 T02410200  RH  078%=      5-min Rain = 0
KMD1 240915Z 16010G15KT 24/20 A2993 RMK A01 T02410200  RH  078%=      5-min Rain = 0
KMD1 240916Z 16015KT 24/20 A2993 RMK A01 T02410200  RH  078%=      5-min Rain = 0
KMD1 240917Z 16011KT 24/20 A2993 RMK A01 T02410200  RH  077%=      5-min Rain = 0
KMD1 240918Z 17009KT 24/20 A2993 RMK A01 T02420200  RH  077%=      5-min Rain = 0
KMD1 240919Z 16008KT 24/20 A2993 RMK A01 T02410201  RH  078%=      5-min Rain = 0
KMD1 240920Z 16009KT 24/20 A2993 RMK A01 T02410201  RH  078%=      5-min Rain = 0
KMD1 240921Z 16010KT 24/20 A2993 RMK A01 T02400200  RH  078%=      5-min Rain = 0
KMD1 240922Z 17010KT 24/20 A2993 RMK A01 T02400200  RH  078%=      5-min Rain = 0
KMD1 240923Z 16010KT 24/20 A2993 RMK A01 T02410200  RH  078%=      5-min Rain = 0
KMD1 240924Z 17011G17KT 24/20 A2993 RMK A01 T02410200  RH  078%=      5-min Rain = 0
KMD1 240925Z 17012KT 24/20 A2993 RMK A01 T02410200  RH  078%=      5-min Rain = 0
KMD1 240926Z 16013G18KT 24/20 A2993 RMK A01 T02410200  RH  078%=      5-min Rain = 0
KMD1 240927Z 16016KT 24/20 A2993 RMK A01 T02410200  RH  078%=      5-min Rain = 0
KMD1 240928Z 17013KT 24/20 A2993 RMK A01 T02410200  RH  078%=      5-min Rain = 0
KMD1 240929Z 17014KT 24/20 A2993 RMK A01 T02420200  RH  077%=      5-min Rain = 0
KMD1 240930Z 16012KT 24/20 A2993 RMK A01 T02410200  RH  077%=      5-min Rain = 0
KMD1 240931Z 17014KT 24/20 A2993 RMK A01 T02410199  RH  077%=      5-min Rain = 0
KMD1 240932Z 16015G20KT 24/20 A2993 RMK A01 T02410199  RH  077%=      5-min Rain = 0
KMD1 240933Z 16012G18KT 24/20 A2993 RMK A01 T02420199  RH  077%=      5-min Rain = 0
KMD1 240934Z 16012KT 24/20 A2993 RMK A01 T02420199  RH  077%=      5-min Rain = 0
KMD1 240935Z 17012KT 24/20 A2993 RMK A01 T02420200  RH  077%=      5-min Rain = 0
KMD1 240936Z 16013KT 24/20 A2993 RMK A01 T02410199  RH  077%=      5-min Rain = 0
KMD1 240937Z 16011KT 24/20 A2993 RMK A01 T02410199  RH  077%=      5-min Rain = 0
KMD1 240938Z 17012KT 24/20 A2993 RMK A01 T02420200  RH  077%=      5-min Rain = 0
KMD1 240939Z 16012KT 24/20 A2993 RMK A01 T02410199  RH  077%=      5-min Rain = 0
KMD1 240940Z 17010G15KT 24/20 A2993 RMK A01 T02410199  RH  077%=      5-min Rain = 0
KMD1 240941Z 18010KT 24/20 A2993 RMK A01 T02420199  RH  077%=      5-min Rain = 0
KMD1 240942Z 16013KT 24/20 A2993 RMK A01 T02420199  RH  077%=      5-min Rain = 0
KMD1 240943Z 17011KT 24/20 A2993 RMK A01 T02420199  RH  077%=      5-min Rain = 0
KMD1 240944Z 18012KT 24/20 A2993 RMK A01 T02420199  RH  077%=      5-min Rain = 0
KMD1 240945Z 17010KT 24/20 A2993 RMK A01 T02420200  RH  077%=      5-min Rain = 0
KMD1 240946Z 16011KT 24/20 A2993 RMK A01 T02410199  RH  077%=      5-min Rain = 0
KMD1 240947Z 16008KT 24/20 A2994 RMK A01 T02410200  RH  078%=      5-min Rain = 0
KMD1 240948Z 16008KT 24/20 A2994 RMK A01 T02410200  RH  078%=      5-min Rain = 0
KMD1 240949Z 16012KT 24/20 A2994 RMK A01 T02400200  RH  078%=      5-min Rain = 0
KMD1 240950Z 17012KT 24/20 A2994 RMK A01 T02410199  RH  078%=      5-min Rain = 0
KMD1 240951Z 18012KT 24/20 A2994 RMK A01 T02410199  RH  077%=      5-min Rain = 0
KMD1 240952Z 17009KT 24/20 A2994 RMK A01 T02420199  RH  077%=      5-min Rain = 0
KMD1 240953Z 17011KT 24/20 A2994 RMK A01 T02420199  RH  077%=      5-min Rain = 0
KMD1 240954Z 17011KT 24/20 A2994 RMK A01 T02420199  RH  077%=      5-min Rain = 0
KMD1 240955Z 17012KT 24/20 A2994 RMK A01 T02420199  RH  077%=      5-min Rain = 0
KMD1 240956Z 17012KT 24/20 A2994 RMK A01 T02420200  RH  077%=      5-min Rain = 0
KMD1 240957Z 17012KT 24/20 A2994 RMK A01 T02420199  RH  077%=      5-min Rain = 0
KMD1 240958Z 16011G16KT 24/20 A2994 RMK A01 T02420199  RH  077%=      5-min Rain = 0
KMD1 240959Z 16012KT 24/20 A2994 RMK A01 T02420200  RH  077%=      5-min Rain = 0
KMD1 241000Z 17015KT 24/20 A2994 RMK A01 T02420200  RH  077%=      5-min Rain = 0
KMD1 241001Z 16010KT 24/20 A2994 RMK A01 T02420199  RH  077%=      5-min Rain = 0
KMD1 241002Z 16010KT 24/20 A2994 RMK A01 T02420199  RH  077%=      5-min Rain = 0
KMD1 241003Z 17009KT 24/20 A2994 RMK A01 T02420199  RH  077%=      5-min Rain = 0
KMD1 241004Z 17009KT 24/20 A2994 RMK A01 T02430200  RH  077%=      5-min Rain = 0
KMD1 241005Z 16008KT 24/20 A2994 RMK A01 T02430200  RH  077%=      5-min Rain = 0
KMD1 241006Z 16008KT 24/20 A2994 RMK A01 T02420200  RH  078%=      5-min Rain = 0
KMD1 241007Z 16010G15KT 24/20 A2994 RMK A01 T02420201  RH  078%=      5-min Rain = 0
KMD1 241008Z 17013KT 24/20 A2994 RMK A01 T02410200  RH  078%=      5-min Rain = 0
KMD1 241009Z 17012KT 24/20 A2994 RMK A01 T02410199  RH  077%=      5-min Rain = 0
KMD1 241010Z 16011KT 24/20 A2994 RMK A01 T02420199  RH  077%=      5-min Rain = 0
KMD1 241011Z 17010KT 24/20 A2994 RMK A01 T02420200  RH  077%=      5-min Rain = 0
KMD1 241012Z 16009G15KT 24/20 A2994 RMK A01 T02420200  RH  078%=      5-min Rain = 0
KMD1 241013Z 16015KT 24/20 A2994 RMK A01 T02410199  RH  077%=      5-min Rain = 0
KMD1 241014Z 17012KT 24/20 A2994 RMK A01 T02410199  RH  077%=      5-min Rain = 0
KMD1 241015Z 17009KT 24/20 A2994 RMK A01 T02420199  RH  077%=      5-min Rain = 0
KMD1 241016Z 18014KT 24/20 A2994 RMK A01 T02420200  RH  077%=      5-min Rain = 0
KMD1 241017Z 18011KT 24/20 A2994 RMK A01 T02420199  RH  077%=      5-min Rain = 0
KMD1 241018Z 16011KT 24/20 A2994 RMK A01 T02420200  RH  077%=      5-min Rain = 0
KMD1 241019Z 16014KT 24/20 A2994 RMK A01 T02420199  RH  077%=      5-min Rain = 0
KMD1 241020Z 17013KT 24/20 A2994 RMK A01 T02420199  RH  077%=      5-min Rain = 0
KMD1 241021Z 17013KT 24/20 A2994 RMK A01 T02420198  RH  076%=      5-min Rain = 0
KMD1 241022Z 17013KT 24/20 A2994 RMK A01 T02430199  RH  076%=      5-min Rain = 0
KMD1 241023Z 16011KT 24/20 A2994 RMK A01 T02430199  RH  076%=      5-min Rain = 0
KMD1 241024Z 16016KT 24/20 A2994 RMK A01 T02430199  RH  076%=      5-min Rain = 0
KMD1 241025Z 16016KT 24/20 A2994 RMK A01 T02430198  RH  076%=      5-min Rain = 0
KMD1 241026Z 16013G18KT 24/20 A2994 RMK A01 T02430198  RH  076%=      5-min Rain = 0
KMD1 241027Z 16014KT 24/20 A2994 RMK A01 T02440199  RH  076%=      5-min Rain = 0
KMD1 241028Z 16014KT 24/20 A2994 RMK A01 T02430198  RH  076%=      5-min Rain = 0
KMD1 241029Z 16012KT 24/20 A2994 RMK A01 T02430197  RH  076%=      5-min Rain = 0
KMD1 241030Z 17015KT 24/20 A2994 RMK A01 T02430198  RH  076%=      5-min Rain = 0
KMD1 241031Z 17015G20KT 24/20 A2994 RMK A01 T02430198  RH  076%=      5-min Rain = 0
KMD1 241032Z 17015KT 24/20 A2994 RMK A01 T02430197  RH  075%=      5-min Rain = 0
KMD1 241033Z 16011KT 24/20 A2994 RMK A01 T02430198  RH  076%=      5-min Rain = 0
KMD1 241034Z 16013KT 24/20 A2994 RMK A01 T02430198  RH  076%=      5-min Rain = 0
KMD1 241035Z 17012KT 24/20 A2994 RMK A01 T02430198  RH  076%=      5-min Rain = 0
KMD1 241036Z 16011KT 24/20 A2994 RMK A01 T02430198  RH  076%=      5-min Rain = 0
KMD1 241037Z 16011KT 24/20 A2994 RMK A01 T02430198  RH  076%=      5-min Rain = 0
KMD1 241038Z 16014KT 24/20 A2994 RMK A01 T02430198  RH  076%=      5-min Rain = 0
KMD1 241039Z 17016KT 24/20 A2994 RMK A01 T02430198  RH  076%=      5-min Rain = 0
KMD1 241040Z 17014KT 24/20 A2994 RMK A01 T02430197  RH  075%=      5-min Rain = 0
KMD1 241041Z 17014KT 24/20 A2994 RMK A01 T02430197  RH  075%=      5-min Rain = 0
KMD1 241042Z 16015KT 24/20 A2994 RMK A01 T02430197  RH  075%=      5-min Rain = 0
KMD1 241043Z 16016G21KT 24/20 A2994 RMK A01 T02430197  RH  075%=      5-min Rain = 0
KMD1 241044Z 16014KT 24/20 A2994 RMK A01 T02430197  RH  075%=      5-min Rain = 0
KMD1 241045Z 17014KT 24/20 A2994 RMK A01 T02430197  RH  075%=      5-min Rain = 0
KMD1 241046Z 16015KT 24/20 A2994 RMK A01 T02430197  RH  075%=      5-min Rain = 0
KMD1 241047Z 16015KT 24/20 A2994 RMK A01 T02430196  RH  075%=      5-min Rain = 0
KMD1 241048Z 16011KT 24/20 A2994 RMK A01 T02430196  RH  075%=      5-min Rain = 0
KMD1 241049Z 16009KT 24/20 A2994 RMK A01 T02430197  RH  076%=      5-min Rain = 0
KMD1 241050Z 17014G20KT 24/20 A2994 RMK A01 T02420197  RH  076%=      5-min Rain = 0
KMD1 241051Z 16014KT 24/20 A2994 RMK A01 T02420197  RH  076%=      5-min Rain = 0
KMD1 241052Z 16015G20KT 24/20 A2994 RMK A01 T02420196  RH  075%=      5-min Rain = 0
KMD1 241053Z 15013KT 24/20 A2994 RMK A01 T02420195  RH  075%=      5-min Rain = 0
KMD1 241054Z 16015G22KT 24/20 A2994 RMK A01 T02420196  RH  075%=      5-min Rain = 0
KMD1 241055Z 16015G20KT 24/20 A2994 RMK A01 T02420196  RH  075%=      5-min Rain = 0
KMD1 241056Z 17018KT 24/20 A2994 RMK A01 T02430196  RH  075%=      5-min Rain = 0
KMD1 241057Z 17016KT 24/20 A2994 RMK A01 T02420195  RH  075%=      5-min Rain = 0
KMD1 241058Z 16013G18KT 24/20 A2994 RMK A01 T02420195  RH  075%=      5-min Rain = 0
KMD1 241059Z 17014KT 24/20 A2994 RMK A01 T02420196  RH  075%=      5-min Rain = 0
KMD1 241100Z 17011KT 24/20 A2994 RMK A01 T02420196  RH  075%=      5-min Rain = 0
KMD1 241101Z 16009KT 24/20 A2994 RMK A01 T02420196  RH  076%=      5-min Rain = 0
KMD1 241102Z 16011KT 24/20 A2994 RMK A01 T02410197  RH  076%=      5-min Rain = 0
KMD1 241103Z 17016KT 24/20 A2994 RMK A01 T02410196  RH  076%=      5-min Rain = 0
KMD1 241104Z 16015G21KT 24/20 A2994 RMK A01 T02410195  RH  075%=      5-min Rain = 0
KMD1 241105Z 16012KT 24/20 A2994 RMK A01 T02420196  RH  075%=      5-min Rain = 0
KMD1 241106Z 16017G23KT 24/20 A2994 RMK A01 T02420196  RH  075%=      5-min Rain = 0
KMD1 241107Z 16015G20KT 24/20 A2994 RMK A01 T02420195  RH  075%=      5-min Rain = 0
KMD1 241108Z 15016G23KT 24/20 A2994 RMK A01 T02420196  RH  075%=      5-min Rain = 0
KMD1 241109Z 17013G18KT 24/20 A2994 RMK A01 T02420195  RH  075%=      5-min Rain = 0
KMD1 241110Z 17012KT 24/20 A2994 RMK A01 T02420196  RH  076%=      5-min Rain = 0
KMD1 241111Z 16010KT 24/20 A2994 RMK A01 T02410196  RH  076%=      5-min Rain = 0
KMD1 241112Z 16011KT 24/20 A2994 RMK A01 T02410196  RH  076%=      5-min Rain = 0
KMD1 241113Z 16010KT 24/20 A2994 RMK A01 T02410196  RH  076%=      5-min Rain = 0
KMD1 241114Z 16009KT 24/20 A2994 RMK A01 T02410196  RH  076%=      5-min Rain = 0
KMD1 241115Z 16008KT 24/20 A2994 RMK A01 T02400196  RH  076%=      5-min Rain = 0
KMD1 241116Z 16011KT 24/20 A2994 RMK A01 T02400195  RH  076%=      5-min Rain = 0
KMD1 241117Z 16016G22KT 24/20 A2994 RMK A01 T02390195  RH  076%=      5-min Rain = 0
KMD1 241118Z 16017KT 24/19 A2994 RMK A01 T02400194  RH  076%=      5-min Rain = 0
KMD1 241119Z 16015KT 24/20 A2994 RMK A01 T02410195  RH  075%=      5-min Rain = 0
KMD1 241120Z 17014G19KT 24/20 A2994 RMK A01 T02410195  RH  075%=      5-min Rain = 0
KMD1 241121Z 17014G19KT 24/20 A2994 RMK A01 T02410195  RH  075%=      5-min Rain = 0
KMD1 241122Z 16013KT 24/20 A2994 RMK A01 T02400195  RH  075%=      5-min Rain = 0
KMD1 241123Z 16013KT 24/20 A2994 RMK A01 T02410195  RH  076%=      5-min Rain = 0
KMD1 241124Z 17011KT 24/20 A2994 RMK A01 T02400195  RH  076%=      5-min Rain = 0
KMD1 241125Z 16010KT 24/20 A2994 RMK A01 T02400195  RH  076%=      5-min Rain = 0
KMD1 241126Z 15009KT 24/20 A2994 RMK A01 T02390195  RH  076%=      5-min Rain = 0
KMD1 241127Z 17009KT 24/20 A2995 RMK A01 T02380195  RH  077%=      5-min Rain = 0
KMD1 241128Z 16010KT 24/20 A2995 RMK A01 T02380196  RH  077%=      5-min Rain = 0
KMD1 241129Z 15012G18KT 24/20 A2994 RMK A01 T02370195  RH  077%=      5-min Rain = 0
KMD1 241130Z 16017KT 24/20 A2994 RMK A01 T02370195  RH  077%=      5-min Rain = 0
KMD1 241131Z 16013G18KT 24/19 A2994 RMK A01 T02380194  RH  077%=      5-min Rain = 0
KMD1 241132Z 16012KT 24/20 A2994 RMK A01 T02380195  RH  077%=      5-min Rain = 0
KMD1 241133Z 16012KT 24/20 A2994 RMK A01 T02380195  RH  077%=      5-min Rain = 0
KMD1 241134Z 16013KT 24/20 A2994 RMK A01 T02380195  RH  077%=      5-min Rain = 0
KMD1 241135Z 16015KT 24/20 A2994 RMK A01 T02380195  RH  077%=      5-min Rain = 0
KMD1 241136Z 16011KT 24/19 A2994 RMK A01 T02380194  RH  077%=      5-min Rain = 0
KMD1 241137Z 16013G18KT 24/20 A2994 RMK A01 T02370195  RH  077%=      5-min Rain = 0
KMD1 241138Z 15013KT 24/20 A2994 RMK A01 T02370195  RH  077%=      5-min Rain = 0
KMD1 241139Z 16012KT 24/20 A2994 RMK A01 T02370195  RH  077%=      5-min Rain = 0
KMD1 241140Z 16012KT 24/20 A2994 RMK A01 T02370195  RH  078%=      5-min Rain = 0
KMD1 241141Z 16014KT 24/20 A2994 RMK A01 T02360195  RH  077%=      5-min Rain = 0
KMD1 241142Z 16010KT 24/20 A2994 RMK A01 T02370195  RH  077%=      5-min Rain = 0
KMD1 241143Z 16011KT 24/20 A2994 RMK A01 T02370195  RH  077%=      5-min Rain = 0
KMD1 241144Z 16011KT 24/20 A2994 RMK A01 T02360195  RH  078%=      5-min Rain = 0
KMD1 241145Z 16011KT 24/20 A2995 RMK A01 T02360195  RH  078%=      5-min Rain = 0
KMD1 241146Z 16011KT 24/20 A2995 RMK A01 T02360195  RH  078%=      5-min Rain = 0
KMD1 241147Z 15013G19KT 24/20 A2995 RMK A01 T02360196  RH  078%=      5-min Rain = 0
KMD1 241148Z 15014G19KT 24/20 A2995 RMK A01 T02360195  RH  078%=      5-min Rain = 0
KMD1 241149Z 16010KT 24/20 A2995 RMK A01 T02350195  RH  078%=      5-min Rain = 0
KMD1 241150Z 17011KT 24/20 A2995 RMK A01 T02360195  RH  078%=      5-min Rain = 0
KMD1 241151Z 16009KT 24/20 A2995 RMK A01 T02360195  RH  078%=      5-min Rain = 0
KMD1 241152Z 16012KT 24/20 A2995 RMK A01 T02350196  RH  078%=      5-min Rain = 0
KMD1 241153Z 16013KT 24/20 A2995 RMK A01 T02350196  RH  078%=      5-min Rain = 0
KMD1 241154Z 17011KT 24/20 A2995 RMK A01 T02360195  RH  078%=      5-min Rain = 0
KMD1 241155Z 16010KT 24/20 A2995 RMK A01 T02350196  RH  078%=      5-min Rain = 0
KMD1 241156Z 16010KT 24/20 A2995 RMK A01 T02350196  RH  079%=      5-min Rain = 0
KMD1 241157Z 16012KT 23/20 A2995 RMK A01 T02340196  RH  079%=      5-min Rain = 0
KMD1 241158Z 17011KT 24/20 A2995 RMK A01 T02350196  RH  079%=      5-min Rain = 0
KMD1 241159Z 16011KT 24/20 A2995 RMK A01 T02350196  RH  078%=      5-min Rain = 0
KMD1 241200Z 16013KT 24/20 A2995 RMK A01 T02360197  RH  079%=      5-min Rain = 0
KMD1 241201Z 16013KT 24/20 A2995 RMK A01 T02360197  RH  079%=      5-min Rain = 0
KMD1 241202Z 16011G16KT 24/20 A2995 RMK A01 T02360196  RH  079%=      5-min Rain = 0
KMD1 241203Z 16011KT 24/20 A2995 RMK A01 T02350196  RH  079%=      5-min Rain = 0
KMD1 241204Z 16012KT 24/20 A2995 RMK A01 T02360197  RH  079%=      5-min Rain = 0
KMD1 241205Z 16010KT 24/20 A2995 RMK A01 T02350196  RH  079%=      5-min Rain = 0
KMD1 241206Z 16011KT 24/20 A2995 RMK A01 T02350197  RH  079%=      5-min Rain = 0
KMD1 241207Z 16011KT 24/20 A2995 RMK A01 T02350197  RH  079%=      5-min Rain = 0
KMD1 241208Z 16013KT 24/20 A2995 RMK A01 T02350197  RH  079%=      5-min Rain = 0
KMD1 241209Z 16010KT 24/20 A2995 RMK A01 T02360197  RH  079%=      5-min Rain = 0
KMD1 241210Z 16009KT 24/20 A2995 RMK A01 T02360198  RH  079%=      5-min Rain = 0
KMD1 241211Z 15010KT 24/20 A2995 RMK A01 T02350198  RH  079%=      5-min Rain = 0
KMD1 241212Z 15009KT 24/20 A2995 RMK A01 T02350198  RH  079%=      5-min Rain = 0
KMD1 241213Z 15010KT 24/20 A2995 RMK A01 T02350198  RH  080%=      5-min Rain = 0
KMD1 241214Z 15009KT 24/20 A2995 RMK A01 T02350198  RH  080%=      5-min Rain = 0
KMD1 241215Z 16009KT 24/20 A2995 RMK A01 T02350198  RH  080%=      5-min Rain = 0
KMD1 241216Z 16009KT 23/20 A2995 RMK A01 T02340197  RH  080%=      5-min Rain = 0
KMD1 241217Z 16011KT 24/20 A2995 RMK A01 T02350197  RH  080%=      5-min Rain = 0
KMD1 241218Z 16010KT 24/20 A2995 RMK A01 T02350197  RH  079%=      5-min Rain = 0
KMD1 241219Z 16009KT 24/20 A2995 RMK A01 T02350198  RH  079%=      5-min Rain = 0
KMD1 241220Z 17013KT 24/20 A2995 RMK A01 T02350197  RH  079%=      5-min Rain = 0
KMD1 241221Z 16010KT 24/20 A2995 RMK A01 T02360197  RH  079%=      5-min Rain = 0
KMD1 241222Z 17009KT 24/20 A2995 RMK A01 T02370197  RH  079%=      5-min Rain = 0
KMD1 241223Z 16008KT 24/20 A2995 RMK A01 T02370199  RH  079%=      5-min Rain = 0
KMD1 241224Z 15008KT 24/20 A2995 RMK A01 T02360200  RH  080%=      5-min Rain = 0
KMD1 241225Z 15009KT 24/20 A2996 RMK A01 T02360199  RH  080%=      5-min Rain = 0
KMD1 241226Z 15012KT 24/20 A2996 RMK A01 T02360198  RH  079%=      5-min Rain = 0
KMD1 241227Z 15012KT 24/20 A2996 RMK A01 T02360198  RH  079%=      5-min Rain = 0
KMD1 241228Z 15010KT 24/20 A2996 RMK A01 T02370198  RH  079%=      5-min Rain = 0
KMD1 241229Z 16009KT 24/20 A2996 RMK A01 T02370199  RH  079%=      5-min Rain = 0
KMD1 241230Z 15009KT 24/20 A2996 RMK A01 T02360200  RH  080%=      5-min Rain = 0
KMD1 241231Z 15010KT 24/20 A2996 RMK A01 T02360199  RH  080%=      5-min Rain = 0
KMD1 241232Z 15011KT 24/20 A2995 RMK A01 T02360199  RH  080%=      5-min Rain = 0
KMD1 241233Z 15009KT 24/20 A2995 RMK A01 T02360199  RH  080%=      5-min Rain = 0
KMD1 241234Z 14010KT 24/20 A2995 RMK A01 T02360199  RH  080%=      5-min Rain = 0
KMD1 241235Z 14009KT 24/20 A2995 RMK A01 T02360199  RH  080%=      5-min Rain = 0
KMD1 241236Z 16010KT 24/20 A2995 RMK A01 T02360200  RH  080%=      5-min Rain = 0
KMD1 241237Z 15011KT 24/20 A2995 RMK A01 T02360199  RH  080%=      5-min Rain = 0
KMD1 241238Z 15009KT 24/20 A2995 RMK A01 T02350199  RH  080%=      5-min Rain = 0
KMD1 241239Z 15013KT 24/20 A2995 RMK A01 T02360200  RH  080%=      5-min Rain = 0
KMD1 241240Z 15011KT 24/20 A2996 RMK A01 T02360199  RH  080%=      5-min Rain = 0
KMD1 241241Z 15013KT 24/20 A2996 RMK A01 T02360199  RH  080%=      5-min Rain = 0
KMD1 241242Z 15012G17KT 24/20 A2996 RMK A01 T02360199  RH  080%=      5-min Rain = 0
KMD1 241243Z 14012KT 24/20 A2996 RMK A01 T02350198  RH  080%=      5-min Rain = 0
KMD1 241244Z 15011KT 24/20 A2996 RMK A01 T02360200  RH  080%=      5-min Rain = 0
KMD1 241245Z 16011KT 24/20 A2996 RMK A01 T02360199  RH  080%=      5-min Rain = 0
KMD1 241246Z 15013KT 24/20 A2996 RMK A01 T02360199  RH  080%=      5-min Rain = 0
KMD1 241247Z 16012KT 24/20 A2996 RMK A01 T02360199  RH  080%=      5-min Rain = 0
KMD1 241248Z 16013KT 24/20 A2996 RMK A01 T02360198  RH  079%=      5-min Rain = 0
KMD1 241249Z 16011KT 24/20 A2996 RMK A01 T02370199  RH  079%=      5-min Rain = 0
KMD1 241250Z 15011KT 24/20 A2996 RMK A01 T02370199  RH  079%=      5-min Rain = 0
KMD1 241251Z 15009KT 24/20 A2996 RMK A01 T02380200  RH  079%=      5-min Rain = 0
KMD1 241252Z 16010KT 24/20 A2996 RMK A01 T02380201  RH  080%=      5-min Rain = 0
KMD1 241253Z 16012KT 24/20 A2996 RMK A01 T02380200  RH  079%=      5-min Rain = 0
KMD1 241254Z 16013KT 24/20 A2996 RMK A01 T02390200  RH  079%=      5-min Rain = 0
KMD1 241255Z 16011KT 24/20 A2996 RMK A01 T02390200  RH  079%=      5-min Rain = 0
KMD1 241256Z 16012KT 24/20 A2996 RMK A01 T02390200  RH  079%=      5-min Rain = 0
KMD1 241257Z 16009KT 24/20 A2996 RMK A01 T02390200  RH  079%=      5-min Rain = 0
KMD1 241258Z 17008KT 24/20 A2996 RMK A01 T02390201  RH  079%=      5-min Rain = 0
KMD1 241259Z 17011KT 24/20 A2996 RMK A01 T02390201  RH  079%=      5-min Rain = 0
KMD1 241300Z 17013KT 24/20 A2996 RMK A01 T02400200  RH  079%=      5-min Rain = 0
KMD1 241301Z 17012KT 24/20 A2996 RMK A01 T02400200  RH  078%=      5-min Rain = 0
KMD1 241302Z 16013KT 24/20 A2996 RMK A01 T02400201  RH  079%=      5-min Rain = 0
KMD1 241303Z 16013KT 24/20 A2996 RMK A01 T02400200  RH  078%=      5-min Rain = 0
KMD1 241304Z 16009KT 24/20 A2997 RMK A01 T02410202  RH  079%=      5-min Rain = 0
KMD1 241305Z 15011KT 24/20 A2997 RMK A01 T02410202  RH  079%=      5-min Rain = 0
KMD1 241306Z 16012KT 24/20 A2997 RMK A01 T02410201  RH  078%=      5-min Rain = 0
KMD1 241307Z 17010KT 24/20 A2997 RMK A01 T02420203  RH  079%=      5-min Rain = 0
KMD1 241308Z 16010KT 24/20 A2997 RMK A01 T02420202  RH  079%=      5-min Rain = 0
KMD1 241309Z 16008KT 24/20 A2997 RMK A01 T02420204  RH  079%=      5-min Rain = 0
KMD1 241310Z 16009KT 24/20 A2997 RMK A01 T02420204  RH  079%=      5-min Rain = 0
KMD1 241311Z 16013KT 24/20 A2997 RMK A01 T02420202  RH  078%=      5-min Rain = 0
KMD1 241312Z 16013KT 24/20 A2997 RMK A01 T02420201  RH  078%=      5-min Rain = 0
KMD1 241313Z 16014G19KT 24/20 A2997 RMK A01 T02420202  RH  078%=      5-min Rain = 0
KMD1 241314Z 16015KT 24/20 A2997 RMK A01 T02420201  RH  078%=      5-min Rain = 0
KMD1 241315Z 16013KT 24/20 A2997 RMK A01 T02420201  RH  078%=      5-min Rain = 0
KMD1 241316Z 16009KT 24/20 A2997 RMK A01 T02420203  RH  079%=      5-min Rain = 0
KMD1 241317Z 16012KT 24/20 A2997 RMK A01 T02420202  RH  079%=      5-min Rain = 0
KMD1 241318Z 17010KT 24/20 A2997 RMK A01 T02410203  RH  079%=      5-min Rain = 0
KMD1 241319Z 17010KT 24/20 A2997 RMK A01 T02420203  RH  079%=      5-min Rain = 0
KMD1 241320Z 16012KT 24/20 A2997 RMK A01 T02410202  RH  079%=      5-min Rain = 0
KMD1 241321Z 16011KT 24/20 A2997 RMK A01 T02410203  RH  079%=      5-min Rain = 0
KMD1 241322Z 16009KT 24/20 A2997 RMK A01 T02410203  RH  079%=      5-min Rain = 0
KMD1 241323Z 18008KT 24/20 A2997 RMK A01 T02410204  RH  079%=      5-min Rain = 0
KMD1 241324Z 17008G14KT 24/20 A2997 RMK A01 T02410204  RH  080%=      5-min Rain = 0
KMD1 241325Z 16010KT 24/20 A2997 RMK A01 T02410204  RH  080%=      5-min Rain = 0
KMD1 241326Z 16013KT 24/20 A2997 RMK A01 T02400201  RH  079%=      5-min Rain = 0
KMD1 241327Z 16011KT 24/20 A2997 RMK A01 T02400202  RH  079%=      5-min Rain = 0
KMD1 241328Z 17013KT 24/20 A2997 RMK A01 T02400202  RH  079%=      5-min Rain = 0
KMD1 241329Z 16012KT 24/20 A2997 RMK A01 T02400202  RH  079%=      5-min Rain = 0
KMD1 241330Z 17012KT 24/20 A2997 RMK A01 T02400202  RH  079%=      5-min Rain = 0
KMD1 241331Z 15008KT 24/20 A2997 RMK A01 T02400203  RH  080%=      5-min Rain = 0
KMD1 241332Z 17008KT 24/20 A2997 RMK A01 T02400203  RH  080%=      5-min Rain = 0
KMD1 241333Z 16007KT 24/20 A2997 RMK A01 T02400203  RH  080%=      5-min Rain = 0
KMD1 241334Z 16009G15KT 24/20 A2997 RMK A01 T02400203  RH  080%=      5-min Rain = 0
KMD1 241335Z 17011KT 24/20 A2997 RMK A01 T02400201  RH  079%=      5-min Rain = 0
KMD1 241336Z 17012KT 24/20 A2997 RMK A01 T02400201  RH  079%=      5-min Rain = 0
KMD1 241337Z 16009KT 24/20 A2997 RMK A01 T02400200  RH  079%=      5-min Rain = 0
KMD1 241338Z 16012KT 24/20 A2997 RMK A01 T02400202  RH  079%=      5-min Rain = 0
KMD1 241339Z 16012KT 24/20 A2997 RMK A01 T02400201  RH  079%=      5-min Rain = 0
KMD1 241340Z 16014KT 24/20 A2997 RMK A01 T02400200  RH  078%=      5-min Rain = 0
KMD1 241341Z 16011KT 24/20 A2997 RMK A01 T02400201  RH  078%=      5-min Rain = 0
KMD1 241342Z 15011KT 24/20 A2997 RMK A01 T02410201  RH  079%=      5-min Rain = 0
KMD1 241343Z 16010KT 24/20 A2997 RMK A01 T02410202  RH  079%=      5-min Rain = 0
KMD1 241344Z 16010KT 24/20 A2997 RMK A01 T02410202  RH  079%=      5-min Rain = 0
KMD1 241345Z 17014KT 24/20 A2997 RMK A01 T02410201  RH  079%=      5-min Rain = 0
KMD1 241346Z 17012KT 24/20 A2997 RMK A01 T02410200  RH  078%=      5-min Rain = 0
KMD1 241347Z 16010KT 24/20 A2997 RMK A01 T02410201  RH  078%=      5-min Rain = 0
KMD1 241348Z 15009KT 24/20 A2997 RMK A01 T02410202  RH  078%=      5-min Rain = 0
KMD1 241349Z 16010KT 24/20 A2997 RMK A01 T02420201  RH  078%=      5-min Rain = 0
KMD1 241350Z 16011KT 24/20 A2997 RMK A01 T02420201  RH  078%=      5-min Rain = 0
KMD1 241351Z 15009KT 24/20 A2997 RMK A01 T02420203  RH  079%=      5-min Rain = 0
KMD1 241352Z 16012KT 24/20 A2997 RMK A01 T02430203  RH  078%=      5-min Rain = 0
KMD1 241353Z 16010KT 24/20 A2997 RMK A01 T02430201  RH  078%=      5-min Rain = 0
KMD1 241354Z 16010KT 24/20 A2997 RMK A01 T02430201  RH  078%=      5-min Rain = 0
KMD1 241355Z 14009KT 24/20 A2997 RMK A01 T02430202  RH  078%=      5-min Rain = 0
KMD1 241356Z 16010G15KT 24/20 A2997 RMK A01 T02440201  RH  077%=      5-min Rain = 0
KMD1 241357Z 17011KT 24/20 A2997 RMK A01 T02440202  RH  077%=      5-min Rain = 0
KMD1 241358Z 16012KT 25/20 A2997 RMK A01 T02450202  RH  077%=      5-min Rain = 0
KMD1 241359Z 16010KT 25/20 A2997 RMK A01 T02470203  RH  077%=      5-min Rain = 0
KMD1 241400Z 16014KT 25/20 A2997 RMK A01 T02480202  RH  075%=      5-min Rain = 0
KMD1 241401Z 17012KT 25/20 A2997 RMK A01 T02480201  RH  075%=      5-min Rain = 0
KMD1 241402Z 16010KT 25/20 A2997 RMK A01 T02480202  RH  075%=      5-min Rain = 0
KMD1 241403Z 16010KT 25/20 A2997 RMK A01 T02490204  RH  076%=      5-min Rain = 0
KMD1 241404Z 16012KT 25/20 A2997 RMK A01 T02500203  RH  075%=      5-min Rain = 0
KMD1 241405Z 16013KT 25/20 A2997 RMK A01 T02510203  RH  075%=      5-min Rain = 0
KMD1 241406Z 18015KT 25/20 A2997 RMK A01 T02510202  RH  074%=      5-min Rain = 0
KMD1 241407Z 17012G17KT 25/20 A2997 RMK A01 T02500201  RH  074%=      5-min Rain = 0
KMD1 241408Z 18014KT 25/20 A2997 RMK A01 T02490201  RH  075%=      5-min Rain = 0
KMD1 241409Z 16011KT 25/20 A2997 RMK A01 T02490202  RH  075%=      5-min Rain = 0
KMD1 241410Z 16011KT 25/20 A2997 RMK A01 T02490203  RH  075%=      5-min Rain = 0
KMD1 241411Z 16011KT 25/20 A2997 RMK A01 T02480202  RH  075%=      5-min Rain = 0
KMD1 241412Z 17014KT 25/20 A2997 RMK A01 T02490202  RH  075%=      5-min Rain = 0
KMD1 241413Z 16019KT 25/20 A2997 RMK A01 T02480200  RH  075%=      5-min Rain = 0
KMD1 241414Z 16016KT 25/20 A2997 RMK A01 T02480200  RH  075%=      5-min Rain = 0
KMD1 241415Z 17014KT 25/20 A2998 RMK A01 T02470200  RH  075%=      5-min Rain = 0
KMD1 241416Z 15013KT 25/20 A2998 RMK A01 T02470201  RH  076%=      5-min Rain = 0
KMD1 241417Z 16010KT 25/20 A2998 RMK A01 T02470201  RH  076%=      5-min Rain = 0
KMD1 241418Z 17011KT 25/20 A2998 RMK A01 T02470202  RH  076%=      5-min Rain = 0
KMD1 241419Z 17014G19KT 25/20 A2998 RMK A01 T02460200  RH  076%=      5-min Rain = 0
KMD1 241420Z 16017KT 25/20 A2998 RMK A01 T02460200  RH  075%=      5-min Rain = 0
KMD1 241421Z 16015KT 25/20 A2998 RMK A01 T02460200  RH  075%=      5-min Rain = 0
KMD1 241422Z 16013KT 25/20 A2998 RMK A01 T02460199  RH  075%=      5-min Rain = 0
KMD1 241423Z 16011KT 25/20 A2998 RMK A01 T02460201  RH  076%=      5-min Rain = 0
KMD1 241424Z 16013KT 25/20 A2998 RMK A01 T02450200  RH  076%=      5-min Rain = 0
KMD1 241425Z 17012KT 25/20 A2998 RMK A01 T02450201  RH  076%=      5-min Rain = 0
KMD1 241426Z 16016KT 25/20 A2998 RMK A01 T02450199  RH  076%=      5-min Rain = 0
KMD1 241427Z 16016KT 24/20 A2998 RMK A01 T02440199  RH  076%=      5-min Rain = 0
KMD1 241428Z 16013KT 24/20 A2998 RMK A01 T02440199  RH  076%=      5-min Rain = 0
KMD1 241429Z 15014KT 24/20 A2998 RMK A01 T02440199  RH  076%=      5-min Rain = 0
KMD1 241430Z 15011KT 24/20 A2998 RMK A01 T02440200  RH  076%=      5-min Rain = 0
KMD1 241431Z 16014KT 25/20 A2998 RMK A01 T02450200  RH  076%=      5-min Rain = 0
KMD1 241432Z 15014KT 24/20 A2998 RMK A01 T02440199  RH  076%=      5-min Rain = 0
KMD1 241433Z 17014KT 24/20 A2998 RMK A01 T02440199  RH  076%=      5-min Rain = 0
KMD1 241434Z 16011KT 24/20 A2998 RMK A01 T02440199  RH  076%=      5-min Rain = 0
KMD1 241435Z 16010KT 24/20 A2998 RMK A01 T02440200  RH  076%=      5-min Rain = 0
KMD1 241436Z 16012KT 24/20 A2998 RMK A01 T02440199  RH  076%=      5-min Rain = 0
KMD1 241437Z 16013KT 25/20 A2998 RMK A01 T02450199  RH  076%=      5-min Rain = 0
KMD1 241438Z 16012G17KT 25/20 A2999 RMK A01 T02450200  RH  076%=      5-min Rain = 0
KMD1 241439Z 15015KT 25/20 A2998 RMK A01 T02450200  RH  076%=      5-min Rain = 0
KMD1 241440Z 15015KT 25/20 A2999 RMK A01 T02450198  RH  075%=      5-min Rain = 0
KMD1 241441Z 17014KT 25/20 A2999 RMK A01 T02450199  RH  075%=      5-min Rain = 0
KMD1 241442Z 16013KT 25/20 A2999 RMK A01 T02450200  RH  076%=      5-min Rain = 0
KMD1 241443Z 16009KT 25/20 A2999 RMK A01 T02450200  RH  076%=      5-min Rain = 0
KMD1 241444Z 15010KT 25/20 A2999 RMK A01 T02460202  RH  077%=      5-min Rain = 0
KMD1 241445Z 16011KT 25/20 A2999 RMK A01 T02460200  RH  076%=      5-min Rain = 0
KMD1 241446Z 16012KT 25/20 A2999 RMK A01 T02460200  RH  076%=      5-min Rain = 0
KMD1 241447Z 16010KT 25/20 A2999 RMK A01 T02460201  RH  076%=      5-min Rain = 0
KMD1 241448Z 15008KT 25/20 A2999 RMK A01 T02460201  RH  076%=      5-min Rain = 0
KMD1 241449Z 15011KT 25/20 A2999 RMK A01 T02470202  RH  076%=      5-min Rain = 0
KMD1 241450Z 14010KT 25/20 A2999 RMK A01 T02470202  RH  076%=      5-min Rain = 0
KMD1 241451Z 16012KT 25/20 A2999 RMK A01 T02470202  RH  076%=      5-min Rain = 0
KMD1 241452Z 17010KT 25/20 A2999 RMK A01 T02460201  RH  076%=      5-min Rain = 0
KMD1 241453Z 16013G19KT 25/20 A2999 RMK A01 T02460201  RH  076%=      5-min Rain = 0
KMD1 241454Z 16015KT 25/20 A2999 RMK A01 T02460200  RH  075%=      5-min Rain = 0
KMD1 241455Z 17015KT 25/20 A2999 RMK A01 T02460199  RH  075%=      5-min Rain = 0
KMD1 241456Z 16013KT 25/20 A2999 RMK A01 T02460200  RH  075%=      5-min Rain = 0
KMD1 241457Z 17012KT 25/20 A2999 RMK A01 T02460200  RH  075%=      5-min Rain = 0
KMD1 241458Z 16011KT 25/20 A2999 RMK A01 T02460201  RH  076%=      5-min Rain = 0
KMD1 241459Z 16008KT 25/20 A2999 RMK A01 T02460200  RH  076%=      5-min Rain = 0
KMD1 241500Z 17014G19KT 25/20 A2999 RMK A01 T02470202  RH  076%=      5-min Rain = 0
KMD1 241501Z 17012KT 25/20 A2999 RMK A01 T02470198  RH  074%=      5-min Rain = 0
KMD1 241502Z 17012KT 25/20 A2999 RMK A01 T02470199  RH  075%=      5-min Rain = 0
KMD1 241503Z 17014KT 25/20 A2999 RMK A01 T02460200  RH  075%=      5-min Rain = 0
KMD1 241504Z 17012KT 25/20 A2999 RMK A01 T02460199  RH  075%=      5-min Rain = 0
KMD1 241505Z 17011KT 25/20 A2999 RMK A01 T02460201  RH  076%=      5-min Rain = 0
KMD1 241506Z 17010KT 25/20 A2999 RMK A01 T02450200  RH  076%=      5-min Rain = 0
KMD1 241507Z 17009KT 25/20 A2999 RMK A01 T02450201  RH  076%=      5-min Rain = 0
KMD1 241508Z 16008KT 25/20 A2999 RMK A01 T02450201  RH  076%=      5-min Rain = 0
KMD1 241509Z 16008KT 25/20 A2999 RMK A01 T02450202  RH  077%=      5-min Rain = 0
KMD1 241510Z 17007KT 25/20 A2999 RMK A01 T02450203  RH  077%=      5-min Rain = 0
KMD1 241511Z 17009KT 25/20 A2999 RMK A01 T02460202  RH  077%=      5-min Rain = 0
KMD1 241512Z 18009KT 25/20 A2999 RMK A01 T02460200  RH  076%=      5-min Rain = 0
KMD1 241513Z 17007KT 25/20 A2999 RMK A01 T02460201  RH  076%=      5-min Rain = 0
KMD1 241514Z 16009KT 25/20 A30 RMK A01 T02460202  RH  077%=      5-min Rain = 0
KMD1 241515Z 17010KT 25/20 A30 RMK A01 T02460201  RH  076%=      5-min Rain = 0
KMD1 241516Z 16011KT 25/20 A30 RMK A01 T02460201  RH  076%=      5-min Rain = 0
KMD1 241517Z 17012KT 25/20 A30 RMK A01 T02460200  RH  076%=      5-min Rain = 0
KMD1 241518Z 16012KT 25/20 A30 RMK A01 T02460199  RH  075%=      5-min Rain = 0
KMD1 241519Z 16011KT 25/20 A30 RMK A01 T02460199  RH  075%=      5-min Rain = 0
KMD1 241520Z 16009KT 25/20 A30 RMK A01 T02460199  RH  075%=      5-min Rain = 0
KMD1 241521Z 16007KT 25/20 A30 RMK A01 T02470201  RH  076%=      5-min Rain = 0
KMD1 241522Z 16008KT 25/20 A30 RMK A01 T02460201  RH  076%=      5-min Rain = 0
KMD1 241523Z 17006KT 25/20 A30 RMK A01 T02470202  RH  076%=      5-min Rain = 0
KMD1 241524Z 17006KT 25/20 A30 RMK A01 T02470203  RH  076%=      5-min Rain = 0
KMD1 241525Z 16007KT 25/20 A30 RMK A01 T02470203  RH  076%=      5-min Rain = 0
KMD1 241526Z 16010KT 25/20 A30 RMK A01 T02470203  RH  076%=      5-min Rain = 0
KMD1 241527Z 16008KT 25/20 A30 RMK A01 T02480203  RH  076%=      5-min Rain = 0
KMD1 241528Z 16008KT 25/20 A30 RMK A01 T02470202  RH  076%=      5-min Rain = 0
KMD1 241529Z 16008KT 25/20 A30 RMK A01 T02470203  RH  076%=      5-min Rain = 0
KMD1 241530Z 16012KT 25/20 A30 RMK A01 T02470201  RH  076%=      5-min Rain = 0
KMD1 241531Z 15011KT 25/20 A30 RMK A01 T02470200  RH  075%=      5-min Rain = 0
KMD1 241532Z 17010KT 25/20 A30 RMK A01 T02470200  RH  075%=      5-min Rain = 0
KMD1 241533Z 16009KT 25/20 A30 RMK A01 T02470203  RH  076%=      5-min Rain = 0
KMD1 241534Z 15009KT 25/20 A30 RMK A01 T02480202  RH  076%=      5-min Rain = 0
KMD1 241535Z 15011KT 25/20 A30 RMK A01 T02470203  RH  076%=      5-min Rain = 0
KMD1 241536Z 15011G16KT 25/20 A30 RMK A01 T02470202  RH  076%=      5-min Rain = 0
KMD1 241537Z 15009KT 25/20 A30 RMK A01 T02470202  RH  076%=      5-min Rain = 0
KMD1 241538Z 15010KT 25/20 A30 RMK A01 T02470202  RH  076%=      5-min Rain = 0
KMD1 241539Z 15011KT 25/20 A30 RMK A01 T02470201  RH  076%=      5-min Rain = 0
KMD1 241540Z 16011KT 25/20 A30 RMK A01 T02470202  RH  076%=      5-min Rain = 0
KMD1 241541Z 17008KT 25/20 A30 RMK A01 T02470204  RH  077%=      5-min Rain = 0
KMD1 241542Z 17013KT 25/20 A30 RMK A01 T02470202  RH  076%=      5-min Rain = 0
KMD1 241543Z 16011KT 25/20 A30 RMK A01 T02480201  RH  075%=      5-min Rain = 0
KMD1 241544Z 16009KT 25/20 A30 RMK A01 T02490201  RH  075%=      5-min Rain = 0
KMD1 241545Z 15008KT 25/20 A30 RMK A01 T02490204  RH  076%=      5-min Rain = 0
KMD1 241546Z 15011KT 25/20 A30 RMK A01 T02490203  RH  076%=      5-min Rain = 0
KMD1 241547Z 15013KT 25/20 A30 RMK A01 T02500202  RH  075%=      5-min Rain = 0
KMD1 241548Z 15013KT 25/20 A30 RMK A01 T02490200  RH  074%=      5-min Rain = 0
KMD1 241549Z 15011KT 25/20 A30 RMK A01 T02490202  RH  075%=      5-min Rain = 0
KMD1 241550Z 15011KT 25/20 A30 RMK A01 T02490203  RH  075%=      5-min Rain = 0
KMD1 241551Z 16009KT 25/20 A30 RMK A01 T02490202  RH  075%=      5-min Rain = 0
KMD1 241552Z 15010KT 25/20 A30 RMK A01 T02500202  RH  075%=      5-min Rain = 0
KMD1 241553Z 15011KT 25/20 A30 RMK A01 T02510202  RH  074%=      5-min Rain = 0
KMD1 241554Z 15011KT 25/20 A30 RMK A01 T02510201  RH  074%=      5-min Rain = 0
KMD1 241555Z 17009KT 25/20 A30 RMK A01 T02500201  RH  074%=      5-min Rain = 0
KMD1 241556Z 15009KT 25/20 A30 RMK A01 T02500202  RH  075%=      5-min Rain = 0
KMD1 241557Z 15010KT 25/20 A30 RMK A01 T02490204  RH  076%=      5-min Rain = 0
KMD1 241558Z 15009KT 25/20 A30 RMK A01 T02480202  RH  075%=      5-min Rain = 0
KMD1 241559Z 15011KT 25/20 A30 RMK A01 T02480202  RH  076%=      5-min Rain = 0
KMD1 241600Z 15011KT 25/20 A30 RMK A01 T02480202  RH  076%=      5-min Rain = 0
KMD1 241601Z 15009KT 25/20 A30 RMK A01 T02470201  RH  076%=      5-min Rain = 0
KMD1 241602Z 15008KT 25/20 A30 RMK A01 T02470202  RH  076%=      5-min Rain = 0
KMD1 241603Z 16009KT 25/20 A30 RMK A01 T02470203  RH  076%=      5-min Rain = 0
KMD1 241604Z 16012KT 25/20 A30 RMK A01 T02470201  RH  075%=      5-min Rain = 0
KMD1 241605Z 16011KT 25/20 A30 RMK A01 T02470200  RH  075%=      5-min Rain = 0
KMD1 241606Z 16010KT 25/20 A30 RMK A01 T02470201  RH  075%=      5-min Rain = 0
KMD1 241607Z 15009KT 25/20 A30 RMK A01 T02480201  RH  075%=      5-min Rain = 0
KMD1 241608Z 15011KT 25/20 A30 RMK A01 T02470201  RH  075%=      5-min Rain = 0
KMD1 241609Z 16012KT 25/20 A30 RMK A01 T02470201  RH  075%=      5-min Rain = 0
KMD1 241610Z 16008KT 25/20 A30 RMK A01 T02470201  RH  076%=      5-min Rain = 0
KMD1 241611Z 15011KT 25/20 A30 RMK A01 T02470201  RH  076%=      5-min Rain = 0
KMD1 241612Z 15008G13KT 25/20 A30 RMK A01 T02470202  RH  076%=      5-min Rain = 0
KMD1 241613Z 16010KT 25/20 A30 RMK A01 T02470202  RH  076%=      5-min Rain = 0
KMD1 241614Z 16009KT 25/20 A30 RMK A01 T02480200  RH  075%=      5-min Rain = 0
KMD1 241615Z 14009KT 25/20 A30 RMK A01 T02480203  RH  076%=      5-min Rain = 0
KMD1 241616Z 15009KT 25/20 A30 RMK A01 T02480203  RH  076%=      5-min Rain = 0
KMD1 241617Z 16009KT 25/20 A30 RMK A01 T02480202  RH  076%=      5-min Rain = 0
KMD1 241618Z 16010KT 25/20 A3001 RMK A01 T02480200  RH  075%=      5-min Rain = 0
KMD1 241619Z 15009KT 25/20 A3001 RMK A01 T02490203  RH  075%=      5-min Rain = 0
KMD1 241620Z 15009KT 25/20 A3001 RMK A01 T02490203  RH  076%=      5-min Rain = 0
KMD1 241621Z 16009KT 25/20 A3001 RMK A01 T02490202  RH  075%=      5-min Rain = 0
KMD1 241622Z 15012KT 25/20 A3001 RMK A01 T02500202  RH  075%=      5-min Rain = 0
KMD1 241623Z 15010KT 25/20 A3001 RMK A01 T02500201  RH  074%=      5-min Rain = 0
KMD1 241624Z 16009KT 25/20 A3001 RMK A01 T02500201  RH  074%=      5-min Rain = 0
KMD1 241625Z 16009KT 25/20 A3001 RMK A01 T02500202  RH  075%=      5-min Rain = 0
KMD1 241626Z 16007KT 25/20 A3001 RMK A01 T02500203  RH  075%=      5-min Rain = 0
KMD1 241627Z 16006KT 25/20 A3001 RMK A01 T02500204  RH  075%=      5-min Rain = 0
KMD1 241628Z 15008KT 25/20 A3001 RMK A01 T02500202  RH  074%=      5-min Rain = 0
KMD1 241629Z 15007KT 25/20 A3001 RMK A01 T02500202  RH  074%=      5-min Rain = 0
KMD1 241630Z 15007KT 25/20 A3001 RMK A01 T02510203  RH  075%=      5-min Rain = 0
KMD1 241631Z 16010KT 25/20 A3001 RMK A01 T02500203  RH  075%=      5-min Rain = 0
KMD1 241632Z 16009KT 25/20 A3001 RMK A01 T02500201  RH  074%=      5-min Rain = 0
KMD1 241633Z 15010KT 25/20 A3001 RMK A01 T02500200  RH  074%=      5-min Rain = 0
KMD1 241634Z 16011KT 25/20 A3001 RMK A01 T02510202  RH  074%=      5-min Rain = 0
KMD1 241635Z 16011KT 25/20 A3001 RMK A01 T02510199  RH  073%=      5-min Rain = 0
KMD1 241636Z 16010KT 25/20 A3001 RMK A01 T02530202  RH  073%=      5-min Rain = 0
KMD1 241637Z 15008KT 25/20 A3001 RMK A01 T02540204  RH  074%=      5-min Rain = 0
KMD1 241638Z 15009KT 25/21 A3001 RMK A01 T02540206  RH  075%=      5-min Rain = 0
KMD1 241639Z 15008KT 26/20 A3001 RMK A01 T02550202  RH  073%=      5-min Rain = 0
KMD1 241640Z 16008KT 26/21 A3001 RMK A01 T02550205  RH  074%=      5-min Rain = 0
KMD1 241641Z 16009KT 26/20 A3001 RMK A01 T02550201  RH  072%=      5-min Rain = 0
KMD1 241642Z 15008KT 26/21 A3001 RMK A01 T02550205  RH  074%=      5-min Rain = 0
KMD1 241643Z 15008KT 26/20 A3001 RMK A01 T02550202  RH  072%=      5-min Rain = 0
KMD1 241644Z 16008KT 26/20 A3001 RMK A01 T02560203  RH  073%=      5-min Rain = 0
KMD1 241645Z 16008KT 26/20 A3001 RMK A01 T02560201  RH  072%=      5-min Rain = 0
KMD1 241646Z 16009KT 26/20 A3001 RMK A01 T02560201  RH  072%=      5-min Rain = 0
KMD1 241647Z 17010KT 26/20 A3001 RMK A01 T02550201  RH  072%=      5-min Rain = 0
KMD1 241648Z 17010KT 26/20 A3001 RMK A01 T02550202  RH  072%=      5-min Rain = 0
KMD1 241649Z 18009KT 26/20 A3001 RMK A01 T02550203  RH  073%=      5-min Rain = 0
KMD1 241650Z 17008KT 26/20 A3001 RMK A01 T02550202  RH  072%=      5-min Rain = 0
KMD1 241651Z 17010KT 26/20 A3001 RMK A01 T02570204  RH  072%=      5-min Rain = 0
KMD1 241652Z 17010KT 26/20 A3001 RMK A01 T02580201  RH  071%=      5-min Rain = 0
KMD1 241653Z 14011KT 26/20 A3001 RMK A01 T02580203  RH  072%=      5-min Rain = 0
KMD1 241654Z 15011KT 26/20 A3001 RMK A01 T02590202  RH  071%=      5-min Rain = 0
KMD1 241655Z 15011KT 26/20 A3001 RMK A01 T02580203  RH  071%=      5-min Rain = 0
KMD1 241656Z 15008KT 26/21 A3001 RMK A01 T02590205  RH  072%=      5-min Rain = 0
KMD1 241657Z 15010KT 26/20 A3001 RMK A01 T02600203  RH  071%=      5-min Rain = 0
KMD1 241658Z 17011KT 26/20 A3001 RMK A01 T02610201  RH  070%=      5-min Rain = 0
KMD1 241659Z 17015KT 26/20 A3001 RMK A01 T02600199  RH  069%=      5-min Rain = 0
KMD1 241700Z 16012KT 26/20 A3001 RMK A01 T02600199  RH  069%=      5-min Rain = 0
KMD1 241701Z 16010KT 26/20 A3001 RMK A01 T02600201  RH  070%=      5-min Rain = 0
KMD1 241702Z 17012G18KT 26/20 A3001 RMK A01 T02600201  RH  070%=      5-min Rain = 0
KMD1 241703Z 15014KT 26/20 A3001 RMK A01 T02610199  RH  069%=      5-min Rain = 0
KMD1 241704Z 16013KT 26/20 A3001 RMK A01 T02610200  RH  069%=      5-min Rain = 0
KMD1 241705Z 16013KT 26/20 A3001 RMK A01 T02610199  RH  068%=      5-min Rain = 0
KMD1 241706Z 17013KT 26/20 A3001 RMK A01 T02610200  RH  069%=      5-min Rain = 0
KMD1 241707Z 17012KT 26/20 A3001 RMK A01 T02620200  RH  069%=      5-min Rain = 0
KMD1 241708Z 15008KT 26/20 A3001 RMK A01 T02620204  RH  070%=      5-min Rain = 0
KMD1 241709Z 15008KT 26/21 A3001 RMK A01 T02630207  RH  071%=      5-min Rain = 0
KMD1 241710Z 15007KT 26/21 A3001 RMK A01 T02620206  RH  071%=      5-min Rain = 0
KMD1 241711Z 14009KT 26/21 A3001 RMK A01 T02620207  RH  072%=      5-min Rain = 0
KMD1 241712Z 14010KT 26/20 A3001 RMK A01 T02600203  RH  071%=      5-min Rain = 0
KMD1 241713Z 15010KT 26/20 A3001 RMK A01 T02580202  RH  071%=      5-min Rain = 0
KMD1 241714Z 15008KT 26/20 A3001 RMK A01 T02570203  RH  072%=      5-min Rain = 0
KMD1 241715Z 17008KT 26/20 A3001 RMK A01 T02570201  RH  071%=      5-min Rain = 0
KMD1 241716Z 16007KT 26/20 A3001 RMK A01 T02580201  RH  071%=      5-min Rain = 0
KMD1 241717Z 16008KT 26/20 A3001 RMK A01 T02590201  RH  070%=      5-min Rain = 0
KMD1 241718Z 16008KT 26/20 A3001 RMK A01 T02600202  RH  071%=      5-min Rain = 0
KMD1 241719Z 17011KT 26/20 A3001 RMK A01 T02600200  RH  070%=      5-min Rain = 0
KMD1 241720Z 16011KT 26/20 A3001 RMK A01 T02600198  RH  069%=      5-min Rain = 0
KMD1 241721Z 16010KT 26/20 A3001 RMK A01 T02610199  RH  069%=      5-min Rain = 0
KMD1 241722Z 16010KT 26/20 A3001 RMK A01 T02610199  RH  068%=      5-min Rain = 0
KMD1 241723Z 16010KT 26/20 A3001 RMK A01 T02610199  RH  068%=      5-min Rain = 0
KMD1 241724Z 16015G21KT 26/20 A3001 RMK A01 T02610195  RH  067%=      5-min Rain = 0
KMD1 241725Z 16014KT 26/20 A3001 RMK A01 T02620196  RH  067%=      5-min Rain = 0
KMD1 241726Z 17014KT 26/20 A3001 RMK A01 T02620197  RH  067%=      5-min Rain = 0
KMD1 241727Z 17014G19KT 26/20 A3001 RMK A01 T02620196  RH  067%=      5-min Rain = 0
KMD1 241728Z 16013KT 26/20 A3001 RMK A01 T02620198  RH  068%=      5-min Rain = 0
KMD1 241729Z 16010KT 26/20 A3001 RMK A01 T02630197  RH  067%=      5-min Rain = 0
KMD1 241730Z 17011KT 26/20 A3001 RMK A01 T02630197  RH  067%=      5-min Rain = 0
KMD1 241731Z 17011KT 26/20 A3001 RMK A01 T02630200  RH  068%=      5-min Rain = 0
KMD1 241732Z 17010KT 26/20 A3001 RMK A01 T02640199  RH  067%=      5-min Rain = 0
KMD1 241733Z 15007KT 26/20 A3001 RMK A01 T02640201  RH  068%=      5-min Rain = 0
KMD1 241734Z 14007KT 26/20 A3001 RMK A01 T02640203  RH  069%=      5-min Rain = 0
KMD1 241735Z 15010G16KT 26/20 A3001 RMK A01 T02630203  RH  070%=      5-min Rain = 0
KMD1 241736Z 15016KT 26/20 A3001 RMK A01 T02630197  RH  067%=      5-min Rain = 0
KMD1 241737Z 15012KT 26/20 A3001 RMK A01 T02610198  RH  068%=      5-min Rain = 0
KMD1 241738Z 14011G16KT 26/20 A3001 RMK A01 T02600197  RH  068%=      5-min Rain = 0
KMD1 241739Z 16011KT 26/20 A3001 RMK A01 T02610198  RH  069%=      5-min Rain = 0
KMD1 241740Z 15011KT 26/20 A3001 RMK A01 T02620199  RH  068%=      5-min Rain = 0
KMD1 241741Z 14013KT 26/20 A3001 RMK A01 T02640200  RH  068%=      5-min Rain = 0
KMD1 241742Z 15014KT 26/20 A3001 RMK A01 T02640199  RH  067%=      5-min Rain = 0
KMD1 241743Z 16009KT 26/20 A3001 RMK A01 T02640200  RH  068%=      5-min Rain = 0
KMD1 241744Z 16008G13KT 26/20 A3001 RMK A01 T02640203  RH  069%=      5-min Rain = 0
KMD1 241745Z 15008KT 27/20 A3001 RMK A01 T02650201  RH  068%=      5-min Rain = 0
KMD1 241746Z 17008KT 27/20 A3001 RMK A01 T02660203  RH  068%=      5-min Rain = 0
KMD1 241747Z 16008KT 27/20 A3001 RMK A01 T02670204  RH  068%=      5-min Rain = 0
KMD1 241748Z 16008KT 27/20 A3001 RMK A01 T02670202  RH  067%=      5-min Rain = 0
KMD1 241749Z 14008KT 27/20 A3001 RMK A01 T02680203  RH  068%=      5-min Rain = 0
KMD1 241750Z 15007KT 27/21 A3001 RMK A01 T02680205  RH  068%=      5-min Rain = 0
KMD1 241751Z 15010KT 27/20 A3001 RMK A01 T02680204  RH  068%=      5-min Rain = 0
KMD1 241752Z 15012KT 27/20 A30 RMK A01 T02680201  RH  067%=      5-min Rain = 0
KMD1 241753Z 14012G17KT 27/20 A3001 RMK A01 T02680201  RH  067%=      5-min Rain = 0
KMD1 241754Z 14015KT 27/20 A30 RMK A01 T02660198  RH  066%=      5-min Rain = 0
KMD1 241755Z 17016KT 27/20 A30 RMK A01 T02650196  RH  066%=      5-min Rain = 0
KMD1 241756Z 15015G20KT 27/20 A30 RMK A01 T02650196  RH  066%=      5-min Rain = 0
KMD1 241757Z 16015KT 27/20 A30 RMK A01 T02650195  RH  065%=      5-min Rain = 0
KMD1 241758Z 14014KT 26/20 A30 RMK A01 T02640197  RH  066%=      5-min Rain = 0
KMD1 241759Z 15012G17KT 26/20 A30 RMK A01 T02620197  RH  067%=      5-min Rain = 0
KMD1 241800Z 17013G19KT 26/20 A30 RMK A01 T02610198  RH  068%=      5-min Rain = 0
KMD1 241801Z 17014G19KT 26/20 A30 RMK A01 T02620195  RH  066%=      5-min Rain = 0
KMD1 241802Z 16010KT 26/20 A30 RMK A01 T02630198  RH  067%=      5-min Rain = 0
KMD1 241803Z 15013KT 27/20 A30 RMK A01 T02650198  RH  067%=      5-min Rain = 0
KMD1 241804Z 16014KT 27/20 A30 RMK A01 T02670196  RH  065%=      5-min Rain = 0
KMD1 241805Z 16012G17KT 27/20 A30 RMK A01 T02690201  RH  066%=      5-min Rain = 0
KMD1 241806Z 16013KT 27/20 A30 RMK A01 T02720199  RH  064%=      5-min Rain = 0
KMD1 241807Z 16011KT 27/20 A30 RMK A01 T02730200  RH  064%=      5-min Rain = 0
KMD1 241808Z 17009KT 27/20 A30 RMK A01 T02730201  RH  065%=      5-min Rain = 0
KMD1 241809Z 17010KT 27/20 A30 RMK A01 T02740203  RH  065%=      5-min Rain = 0
KMD1 241810Z 17012KT 27/20 A30 RMK A01 T02740199  RH  064%=      5-min Rain = 0
KMD1 241811Z 16013KT 27/20 A30 RMK A01 T02730197  RH  063%=      5-min Rain = 0
KMD1 241812Z 17010KT 27/20 A30 RMK A01 T02720200  RH  065%=      5-min Rain = 0
KMD1 241813Z 16009KT 27/20 A30 RMK A01 T02720201  RH  065%=      5-min Rain = 0
KMD1 241814Z 16009KT 27/20 A30 RMK A01 T02740202  RH  065%=      5-min Rain = 0
KMD1 241815Z 17015KT 27/20 A30 RMK A01 T02740198  RH  063%=      5-min Rain = 0
KMD1 241816Z 17016KT 27/20 A30 RMK A01 T02720197  RH  064%=      5-min Rain = 0
KMD1 241817Z 17015KT 27/20 A30 RMK A01 T02700198  RH  065%=      5-min Rain = 0
KMD1 241818Z 16013KT 27/20 A30 RMK A01 T02690198  RH  065%=      5-min Rain = 0
KMD1 241819Z 16012KT 27/20 A30 RMK A01 T02690198  RH  065%=      5-min Rain = 0
KMD1 241820Z 16012G17KT 27/20 A30 RMK A01 T02690200  RH  066%=      5-min Rain = 0
KMD1 241821Z 16015KT 27/20 A30 RMK A01 T02690198  RH  065%=      5-min Rain = 0
KMD1 241822Z 16012KT 27/20 A30 RMK A01 T02690198  RH  065%=      5-min Rain = 0
KMD1 241823Z 16011G16KT 27/20 A30 RMK A01 T02690198  RH  065%=      5-min Rain = 0
KMD1 241824Z 16012KT 27/20 A30 RMK A01 T02700199  RH  065%=      5-min Rain = 0
KMD1 241825Z 16012KT 27/20 A30 RMK A01 T02710202  RH  066%=      5-min Rain = 0
KMD1 241826Z 16013KT 27/20 A30 RMK A01 T02740202  RH  065%=      5-min Rain = 0
KMD1 241827Z 15014KT 28/20 A30 RMK A01 T02760203  RH  064%=      5-min Rain = 0
KMD1 241828Z 15012KT 28/21 A30 RMK A01 T02770205  RH  065%=      5-min Rain = 0
KMD1 241829Z 16011KT 28/20 A30 RMK A01 T02770204  RH  064%=      5-min Rain = 0
KMD1 241830Z 14008KT 28/21 A30 RMK A01 T02780206  RH  065%=      5-min Rain = 0
KMD1 241831Z 16008KT 28/21 A30 RMK A01 T02780207  RH  065%=      5-min Rain = 0
KMD1 241832Z 14008G13KT 28/21 A30 RMK A01 T02770209  RH  066%=      5-min Rain = 0
KMD1 241833Z 14009KT 28/20 A30 RMK A01 T02750204  RH  065%=      5-min Rain = 0
KMD1 241834Z 14012KT 27/21 A30 RMK A01 T02730205  RH  066%=      5-min Rain = 0
KMD1 241835Z 16012KT 27/20 A30 RMK A01 T02700202  RH  066%=      5-min Rain = 0
KMD1 241836Z 16014KT 27/20 A2999 RMK A01 T02700198  RH  065%=      5-min Rain = 0
KMD1 241837Z 16013KT 27/20 A30 RMK A01 T02700200  RH  066%=      5-min Rain = 0
KMD1 241838Z 15013KT 27/20 A30 RMK A01 T02690200  RH  066%=      5-min Rain = 0
KMD1 241839Z 17012KT 27/20 A30 RMK A01 T02680201  RH  066%=      5-min Rain = 0
KMD1 241840Z 16013KT 27/20 A30 RMK A01 T02680202  RH  067%=      5-min Rain = 0
KMD1 241841Z 16011G17KT 27/20 A30 RMK A01 T02680204  RH  068%=      5-min Rain = 0
KMD1 241842Z 16012KT 27/20 A30 RMK A01 T02680201  RH  067%=      5-min Rain = 0
KMD1 241843Z 15012KT 27/20 A30 RMK A01 T02690201  RH  066%=      5-min Rain = 0
KMD1 241844Z 15012KT 27/20 A30 RMK A01 T02690202  RH  067%=      5-min Rain = 0
KMD1 241845Z 15012KT 27/20 A2999 RMK A01 T02680202  RH  067%=      5-min Rain = 0
KMD1 241846Z 16010KT 27/20 A2999 RMK A01 T02670202  RH  067%=      5-min Rain = 0
KMD1 241847Z 15011KT 27/20 A2999 RMK A01 T02680203  RH  067%=      5-min Rain = 0
KMD1 241848Z 16011KT 27/20 A2999 RMK A01 T02680201  RH  067%=      5-min Rain = 0
KMD1 241849Z 17012KT 27/20 A2999 RMK A01 T02680198  RH  065%=      5-min Rain = 0
KMD1 241850Z 16015G22KT 27/20 A2999 RMK A01 T02690199  RH  066%=      5-min Rain = 0
KMD1 241851Z 15016KT 27/20 A2999 RMK A01 T02690196  RH  065%=      5-min Rain = 0
KMD1 241852Z 16015KT 27/20 A2999 RMK A01 T02690198  RH  065%=      5-min Rain = 0
KMD1 241853Z 16016KT 27/20 A2999 RMK A01 T02690197  RH  065%=      5-min Rain = 0
KMD1 241854Z 15013KT 27/20 A2999 RMK A01 T02690198  RH  065%=      5-min Rain = 0
KMD1 241855Z 15013KT 27/20 A2999 RMK A01 T02690199  RH  065%=      5-min Rain = 0
KMD1 241856Z 16014KT 27/20 A2999 RMK A01 T02700198  RH  065%=      5-min Rain = 0
KMD1 241857Z 16013KT 27/20 A2999 RMK A01 T02710200  RH  065%=      5-min Rain = 0
KMD1 241858Z 17014KT 27/20 A2999 RMK A01 T02720200  RH  065%=      5-min Rain = 0
KMD1 241859Z 17014KT 27/20 A2999 RMK A01 T02730199  RH  064%=      5-min Rain = 0
KMD1 241900Z 17011KT 27/20 A2999 RMK A01 T02730200  RH  064%=      5-min Rain = 0
KMD1 241901Z 17009KT 27/20 A2999 RMK A01 T02740203  RH  065%=      5-min Rain = 0
KMD1 241902Z 17012KT 28/20 A2999 RMK A01 T02750201  RH  064%=      5-min Rain = 0
KMD1 241903Z 16013KT 28/20 A2999 RMK A01 T02750199  RH  063%=      5-min Rain = 0
KMD1 241904Z 17012G17KT 28/20 A2999 RMK A01 T02760201  RH  064%=      5-min Rain = 0
KMD1 241905Z 16013KT 28/20 A2999 RMK A01 T02770198  RH  062%=      5-min Rain = 0
KMD1 241906Z 16012KT 28/20 A2999 RMK A01 T02770198  RH  062%=      5-min Rain = 0
KMD1 241907Z 16016KT 28/20 A2998 RMK A01 T02770199  RH  063%=      5-min Rain = 0
KMD1 241908Z 16015KT 28/20 A2998 RMK A01 T02770195  RH  061%=      5-min Rain = 0
KMD1 241909Z 17011KT 28/20 A2998 RMK A01 T02760201  RH  063%=      5-min Rain = 0
KMD1 241910Z 18009KT 28/20 A2998 RMK A01 T02770201  RH  063%=      5-min Rain = 0
KMD1 241911Z 17012KT 28/20 A2998 RMK A01 T02760201  RH  064%=      5-min Rain = 0
KMD1 241912Z 15012KT 28/20 A2999 RMK A01 T02760199  RH  063%=      5-min Rain = 0
KMD1 241913Z 15011KT 28/20 A2999 RMK A01 T02750201  RH  064%=      5-min Rain = 0
KMD1 241914Z 14016KT 27/20 A2999 RMK A01 T02730199  RH  064%=      5-min Rain = 0
KMD1 241915Z 15016KT 27/20 A2998 RMK A01 T02710200  RH  065%=      5-min Rain = 0
KMD1 241916Z 14016KT 27/20 A2998 RMK A01 T02690201  RH  066%=      5-min Rain = 0
KMD1 241917Z 14013KT 27/20 A2998 RMK A01 T02670202  RH  067%=      5-min Rain = 0
KMD1 241918Z 14014KT 27/20 A2998 RMK A01 T02670203  RH  068%=      5-min Rain = 0
KMD1 241919Z 15013KT 27/20 A2998 RMK A01 T02670200  RH  067%=      5-min Rain = 0
KMD1 241920Z 15011KT 27/20 A2998 RMK A01 T02680204  RH  068%=      5-min Rain = 0
KMD1 241921Z 15010KT 27/20 A2998 RMK A01 T02690203  RH  067%=      5-min Rain = 0
KMD1 241922Z 16009KT 27/21 A2998 RMK A01 T02710208  RH  068%=      5-min Rain = 0
KMD1 241923Z 15010KT 27/21 A2998 RMK A01 T02740205  RH  066%=      5-min Rain = 0
KMD1 241924Z 15008KT 28/21 A2998 RMK A01 T02750207  RH  066%=      5-min Rain = 0
KMD1 241925Z 14011KT 28/21 A2998 RMK A01 T02750208  RH  067%=      5-min Rain = 0
KMD1 241926Z 13012KT 28/21 A2998 RMK A01 T02760211  RH  068%=      5-min Rain = 0
KMD1 241927Z 14011KT 28/21 A2998 RMK A01 T02770208  RH  066%=      5-min Rain = 0
KMD1 241928Z 14012G18KT 28/21 A2998 RMK A01 T02770210  RH  067%=      5-min Rain = 0
KMD1 241929Z 16013G22KT 28/21 A2998 RMK A01 T02780207  RH  065%=      5-min Rain = 0
KMD1 241930Z 16017G22KT 28/20 A2998 RMK A01 T02810201  RH  062%=      5-min Rain = 0
KMD1 241931Z 15016G22KT 28/20 A2998 RMK A01 T02820199  RH  061%=      5-min Rain = 0
KMD1 241932Z 16015KT 28/20 A2998 RMK A01 T02830199  RH  060%=      5-min Rain = 0
KMD1 241933Z 16014KT 28/20 A2998 RMK A01 T02830199  RH  060%=      5-min Rain = 0
KMD1 241934Z 15015KT 28/20 A2998 RMK A01 T02830198  RH  060%=      5-min Rain = 0
KMD1 241935Z 16014G21KT 28/20 A2998 RMK A01 T02800200  RH  062%=      5-min Rain = 0
KMD1 241936Z 16019KT 28/20 A2998 RMK A01 T02770197  RH  061%=      5-min Rain = 0
KMD1 241937Z 16017KT 27/20 A2998 RMK A01 T02740197  RH  063%=      5-min Rain = 0
KMD1 241938Z 16016KT 27/20 A2998 RMK A01 T02720198  RH  064%=      5-min Rain = 0
KMD1 241939Z 15014KT 27/20 A2998 RMK A01 T02700196  RH  064%=      5-min Rain = 0
KMD1 241940Z 15014KT 27/20 A2998 RMK A01 T02700198  RH  065%=      5-min Rain = 0
KMD1 241941Z 15016G22KT 27/20 A2998 RMK A01 T02700197  RH  064%=      5-min Rain = 0
KMD1 241942Z 15014G19KT 27/20 A2998 RMK A01 T02700199  RH  065%=      5-min Rain = 0
KMD1 241943Z 15018KT 27/20 A2998 RMK A01 T02690197  RH  065%=      5-min Rain = 0
KMD1 241944Z 15017KT 27/20 A2997 RMK A01 T02680195  RH  064%=      5-min Rain = 0
KMD1 241945Z 15014KT 27/20 A2998 RMK A01 T02680196  RH  065%=      5-min Rain = 0
KMD1 241946Z 16013KT 27/20 A2997 RMK A01 T02680196  RH  065%=      5-min Rain = 0
KMD1 241947Z 16012G19KT 27/20 A2997 RMK A01 T02680198  RH  065%=      5-min Rain = 0
KMD1 241948Z 16013KT 27/20 A2997 RMK A01 T02690199  RH  066%=      5-min Rain = 0
KMD1 241949Z 16013KT 27/20 A2997 RMK A01 T02700197  RH  064%=      5-min Rain = 0
KMD1 241950Z 15011KT 27/20 A2997 RMK A01 T02720199  RH  065%=      5-min Rain = 0
KMD1 241951Z 16010KT 27/20 A2997 RMK A01 T02730202  RH  065%=      5-min Rain = 0
KMD1 241952Z 17009KT 28/20 A2997 RMK A01 T02750203  RH  065%=      5-min Rain = 0
KMD1 241953Z 17013KT 28/20 A2997 RMK A01 T02760201  RH  063%=      5-min Rain = 0
KMD1 241954Z 16011KT 28/20 A2997 RMK A01 T02770202  RH  063%=      5-min Rain = 0
KMD1 241955Z 15008G13KT 28/20 A2997 RMK A01 T02770204  RH  064%=      5-min Rain = 0
KMD1 241956Z 16015KT 28/20 A2997 RMK A01 T02780201  RH  063%=      5-min Rain = 0
KMD1 241957Z 16014KT 28/20 A2997 RMK A01 T02780202  RH  063%=      5-min Rain = 0
KMD1 241958Z 16012KT 28/20 A2997 RMK A01 T02800204  RH  063%=      5-min Rain = 0
KMD1 241959Z 16009KT 28/20 A2997 RMK A01 T02820204  RH  062%=      5-min Rain = 0
KMD1 242000Z 16012KT 28/21 A2997 RMK A01 T02840207  RH  063%=      5-min Rain = 0
KMD1 242001Z 15011KT 29/21 A2997 RMK A01 T02850207  RH  063%=      5-min Rain = 0
KMD1 242002Z 17011KT 29/21 A2997 RMK A01 T02860210  RH  063%=      5-min Rain = 0
KMD1 242003Z 16013KT 29/21 A2997 RMK A01 T02890208  RH  061%=      5-min Rain = 0
KMD1 242004Z 15013KT 29/21 A2997 RMK A01 T02900210  RH  062%=      5-min Rain = 0
KMD1 242005Z 16014KT 29/21 A2996 RMK A01 T02900205  RH  060%=      5-min Rain = 0
KMD1 242006Z 15015G22KT 29/20 A2997 RMK A01 T02890203  RH  060%=      5-min Rain = 0
KMD1 242007Z 15013KT 29/20 A2997 RMK A01 T02860204  RH  061%=      5-min Rain = 0
KMD1 242008Z 16014KT 29/20 A2997 RMK A01 T02850200  RH  060%=      5-min Rain = 0
KMD1 242009Z 14014KT 28/20 A2997 RMK A01 T02830199  RH  060%=      5-min Rain = 0
KMD1 242010Z 15018KT 28/20 A2997 RMK A01 T02810198  RH  061%=      5-min Rain = 0
KMD1 242011Z 14017KT 28/20 A2997 RMK A01 T02780197  RH  061%=      5-min Rain = 0
KMD1 242012Z 15013KT 28/20 A2997 RMK A01 T02760196  RH  062%=      5-min Rain = 0
KMD1 242013Z 14014KT 28/20 A2997 RMK A01 T02760198  RH  062%=      5-min Rain = 0
KMD1 242014Z 15016KT 28/20 A2997 RMK A01 T02760199  RH  063%=      5-min Rain = 0
KMD1 242015Z 15014KT 28/20 A2996 RMK A01 T02760196  RH  062%=      5-min Rain = 0
KMD1 242016Z 15015KT 28/20 A2996 RMK A01 T02770198  RH  062%=      5-min Rain = 0
KMD1 242017Z 15015KT 28/20 A2996 RMK A01 T02770198  RH  062%=      5-min Rain = 0
KMD1 242018Z 15013KT 28/20 A2996 RMK A01 T02780199  RH  062%=      5-min Rain = 0
KMD1 242019Z 14012KT 28/20 A2996 RMK A01 T02780203  RH  064%=      5-min Rain = 0
KMD1 242020Z 16008KT 28/20 A2996 RMK A01 T02770204  RH  065%=      5-min Rain = 0
KMD1 242021Z 14009KT 28/20 A2996 RMK A01 T02790201  RH  063%=      5-min Rain = 0
KMD1 242022Z 15010KT 28/20 A2996 RMK A01 T02800200  RH  062%=      5-min Rain = 0
KMD1 242023Z 15011G16KT 28/20 A2996 RMK A01 T02800203  RH  063%=      5-min Rain = 0
KMD1 242024Z 15013G19KT 28/20 A2996 RMK A01 T02810202  RH  062%=      5-min Rain = 0
KMD1 242025Z 17016KT 28/20 A2996 RMK A01 T02820199  RH  061%=      5-min Rain = 0
KMD1 242026Z 16013KT 28/20 A2996 RMK A01 T02820200  RH  061%=      5-min Rain = 0
KMD1 242027Z 16016KT 28/20 A2996 RMK A01 T02820199  RH  061%=      5-min Rain = 0
KMD1 242028Z 14016KT 28/20 A2996 RMK A01 T02820197  RH  060%=      5-min Rain = 0
KMD1 242029Z 15015KT 28/20 A2996 RMK A01 T02800198  RH  061%=      5-min Rain = 0
KMD1 242030Z 14015KT 28/20 A2996 RMK A01 T02780197  RH  061%=      5-min Rain = 0
KMD1 242031Z 14015KT 28/20 A2996 RMK A01 T02770196  RH  062%=      5-min Rain = 0
KMD1 242032Z 14013KT 28/20 A2996 RMK A01 T02760197  RH  062%=      5-min Rain = 0
KMD1 242033Z 14013KT 28/20 A2996 RMK A01 T02760200  RH  063%=      5-min Rain = 0
KMD1 242034Z 15011KT 28/20 A2996 RMK A01 T02770198  RH  062%=      5-min Rain = 0
KMD1 242035Z 14013KT 28/20 A2996 RMK A01 T02780200  RH  063%=      5-min Rain = 0
KMD1 242036Z 17011G18KT 28/20 A2996 RMK A01 T02790200  RH  062%=      5-min Rain = 0
KMD1 242037Z 17011G17KT 28/20 A2996 RMK A01 T02810204  RH  063%=      5-min Rain = 0
KMD1 242038Z 16014KT 28/20 A2996 RMK A01 T02830201  RH  061%=      5-min Rain = 0
KMD1 242039Z 14011KT 29/21 A2996 RMK A01 T02850206  RH  063%=      5-min Rain = 0
KMD1 242040Z 15013KT 28/21 A2996 RMK A01 T02840207  RH  063%=      5-min Rain = 0
KMD1 242041Z 15013KT 28/20 A2996 RMK A01 T02840201  RH  061%=      5-min Rain = 0
KMD1 242042Z 16012KT 28/20 A2996 RMK A01 T02840202  RH  061%=      5-min Rain = 0
KMD1 242043Z 15018KT 28/20 A2996 RMK A01 T02840200  RH  060%=      5-min Rain = 0
KMD1 242044Z 14017G22KT 28/20 A2996 RMK A01 T02830197  RH  059%=      5-min Rain = 0
KMD1 242045Z 15015KT 28/20 A2996 RMK A01 T02810199  RH  061%=      5-min Rain = 0
KMD1 242046Z 15018KT 28/20 A2996 RMK A01 T02820199  RH  060%=      5-min Rain = 0
KMD1 242047Z 14017KT 28/20 A2996 RMK A01 T02830198  RH  060%=      5-min Rain = 0
KMD1 242048Z 16017KT 28/20 A2996 RMK A01 T02830197  RH  060%=      5-min Rain = 0
KMD1 242049Z 15015G20KT 28/20 A2995 RMK A01 T02830199  RH  060%=      5-min Rain = 0
KMD1 242050Z 15011KT 28/20 A2995 RMK A01 T02840200  RH  060%=      5-min Rain = 0
KMD1 242051Z 13012KT 28/20 A2995 RMK A01 T02840203  RH  061%=      5-min Rain = 0
KMD1 242052Z 14011KT 28/21 A2995 RMK A01 T02840205  RH  062%=      5-min Rain = 0
KMD1 242053Z 15013KT 28/20 A2995 RMK A01 T02830201  RH  061%=      5-min Rain = 0
KMD1 242054Z 15010KT 28/20 A2995 RMK A01 T02840202  RH  061%=      5-min Rain = 0
KMD1 242055Z 16011KT 29/20 A2995 RMK A01 T02870203  RH  060%=      5-min Rain = 0
KMD1 242056Z 16013KT 29/20 A2995 RMK A01 T02890199  RH  058%=      5-min Rain = 0
KMD1 242057Z 17018KT 29/20 A2995 RMK A01 T02900199  RH  058%=      5-min Rain = 0
KMD1 242058Z 17017KT 29/20 A2995 RMK A01 T02900197  RH  057%=      5-min Rain = 0
KMD1 242059Z 17013KT 29/20 A2995 RMK A01 T02900196  RH  057%=      5-min Rain = 0
KMD1 242100Z 17013KT 29/20 A2995 RMK A01 T02890199  RH  058%=      5-min Rain = 0
KMD1 242101Z 17014KT 29/20 A2995 RMK A01 T02870197  RH  058%=      5-min Rain = 0
KMD1 242102Z 16014KT 29/20 A2995 RMK A01 T02860196  RH  058%=      5-min Rain = 0
KMD1 242103Z 16011KT 29/20 A2995 RMK A01 T02860197  RH  059%=      5-min Rain = 0
KMD1 242104Z 17012KT 29/20 A2995 RMK A01 T02860199  RH  059%=      5-min Rain = 0
KMD1 242105Z 17015KT 29/19 A2995 RMK A01 T02850194  RH  058%=      5-min Rain = 0
KMD1 242106Z 17017G22KT 28/19 A2995 RMK A01 T02820192  RH  058%=      5-min Rain = 0
KMD1 242107Z 17018G24KT 28/19 A2995 RMK A01 T02810194  RH  059%=      5-min Rain = 0
KMD1 242108Z 15015KT 28/20 A2995 RMK A01 T02810197  RH  060%=      5-min Rain = 0
KMD1 242109Z 16015G23KT 28/20 A2995 RMK A01 T02810197  RH  060%=      5-min Rain = 0
KMD1 242110Z 17015KT 28/19 A2995 RMK A01 T02810193  RH  059%=      5-min Rain = 0
KMD1 242111Z 17016KT 28/19 A2995 RMK A01 T02810192  RH  058%=      5-min Rain = 0
KMD1 242112Z 16012KT 28/20 A2995 RMK A01 T02820195  RH  059%=      5-min Rain = 0
KMD1 242113Z 16012KT 28/20 A2995 RMK A01 T02820196  RH  060%=      5-min Rain = 0
KMD1 242114Z 16009KT 28/20 A2995 RMK A01 T02830197  RH  060%=      5-min Rain = 0
KMD1 242115Z 17009KT 28/20 A2995 RMK A01 T02840198  RH  060%=      5-min Rain = 0
KMD1 242116Z 16013KT 28/19 A2995 RMK A01 T02840194  RH  058%=      5-min Rain = 0
KMD1 242117Z 17013KT 28/20 A2995 RMK A01 T02830195  RH  059%=      5-min Rain = 0
KMD1 242118Z 16012KT 28/20 A2995 RMK A01 T02830195  RH  059%=      5-min Rain = 0
KMD1 242119Z 16011KT 28/20 A2995 RMK A01 T02830195  RH  059%=      5-min Rain = 0
KMD1 242120Z 16011KT 28/20 A2995 RMK A01 T02820197  RH  060%=      5-min Rain = 0
KMD1 242121Z 15011KT 28/20 A2995 RMK A01 T02820197  RH  060%=      5-min Rain = 0
KMD1 242122Z 14010KT 28/20 A2995 RMK A01 T02810197  RH  060%=      5-min Rain = 0
KMD1 242123Z 15011KT 28/20 A2995 RMK A01 T02810197  RH  060%=      5-min Rain = 0
KMD1 242124Z 15014KT 28/20 A2995 RMK A01 T02810197  RH  060%=      5-min Rain = 0
KMD1 242125Z 16015KT 28/19 A2995 RMK A01 T02810194  RH  059%=      5-min Rain = 0
KMD1 242126Z 15013KT 28/19 A2995 RMK A01 T02800192  RH  059%=      5-min Rain = 0
KMD1 242127Z 15011G16KT 28/20 A2995 RMK A01 T02800195  RH  060%=      5-min Rain = 0
KMD1 242128Z 16015KT 28/19 A2995 RMK A01 T02800192  RH  059%=      5-min Rain = 0
KMD1 242129Z 15016KT 28/19 A2995 RMK A01 T02800189  RH  058%=      5-min Rain = 0
KMD1 242130Z 16014KT 28/19 A2995 RMK A01 T02800192  RH  059%=      5-min Rain = 0
KMD1 242131Z 16016G21KT 28/19 A2995 RMK A01 T02790190  RH  058%=      5-min Rain = 0
KMD1 242132Z 16013KT 28/19 A2995 RMK A01 T02790188  RH  058%=      5-min Rain = 0
KMD1 242133Z 17015G20KT 28/19 A2995 RMK A01 T02800188  RH  058%=      5-min Rain = 0
KMD1 242134Z 16013KT 28/19 A2995 RMK A01 T02800189  RH  058%=      5-min Rain = 0
KMD1 242135Z 15013KT 28/19 A2995 RMK A01 T02800190  RH  058%=      5-min Rain = 0
KMD1 242136Z 15012KT 28/19 A2995 RMK A01 T02800191  RH  059%=      5-min Rain = 0
KMD1 242137Z 15012KT 28/19 A2995 RMK A01 T02790193  RH  059%=      5-min Rain = 0
KMD1 242138Z 16011KT 28/19 A2995 RMK A01 T02790194  RH  060%=      5-min Rain = 0
KMD1 242139Z 17012KT 28/19 A2995 RMK A01 T02790193  RH  059%=      5-min Rain = 0
KMD1 242140Z 17011KT 28/19 A2995 RMK A01 T02810193  RH  059%=      5-min Rain = 0
KMD1 242141Z 16010G16KT 28/20 A2995 RMK A01 T02810196  RH  060%=      5-min Rain = 0
KMD1 242142Z 15013KT 28/19 A2995 RMK A01 T02810192  RH  058%=      5-min Rain = 0
KMD1 242143Z 16011KT 28/20 A2995 RMK A01 T02810195  RH  059%=      5-min Rain = 0
KMD1 242144Z 16012KT 28/19 A2995 RMK A01 T02820193  RH  059%=      5-min Rain = 0
KMD1 242145Z 17009KT 28/20 A2995 RMK A01 T02820196  RH  060%=      5-min Rain = 0
KMD1 242146Z 17011KT 28/19 A2994 RMK A01 T02820193  RH  059%=      5-min Rain = 0
KMD1 242147Z 17010KT 28/20 A2994 RMK A01 T02820195  RH  059%=      5-min Rain = 0
KMD1 242148Z 16012KT 28/19 A2994 RMK A01 T02820194  RH  059%=      5-min Rain = 0
KMD1 242149Z 17010KT 28/19 A2994 RMK A01 T02820194  RH  059%=      5-min Rain = 0
KMD1 242150Z 17012KT 28/20 A2994 RMK A01 T02820196  RH  059%=      5-min Rain = 0
KMD1 242151Z 17012KT 28/19 A2994 RMK A01 T02820194  RH  059%=      5-min Rain = 0
KMD1 242152Z 16009KT 28/19 A2994 RMK A01 T02810193  RH  059%=      5-min Rain = 0
KMD1 242153Z 15008KT 28/20 A2994 RMK A01 T02820196  RH  060%=      5-min Rain = 0
KMD1 242154Z 18010KT 28/20 A2994 RMK A01 T02820195  RH  059%=      5-min Rain = 0
KMD1 242155Z 16007KT 28/20 A2994 RMK A01 T02830199  RH  060%=      5-min Rain = 0
KMD1 242156Z 16007KT 28/20 A2993 RMK A01 T02830200  RH  061%=      5-min Rain = 0
KMD1 242157Z 13006KT 28/20 A2994 RMK A01 T02830200  RH  060%=      5-min Rain = 0
KMD1 242158Z 12011KT 28/20 A2994 RMK A01 T02830202  RH  061%=      5-min Rain = 0
KMD1 242159Z 13012KT 28/20 A2994 RMK A01 T02810198  RH  061%=      5-min Rain = 0
KMD1 242200Z 15009KT 28/20 A2994 RMK A01 T02790198  RH  061%=      5-min Rain = 0
KMD1 242201Z 16012KT 28/19 A2993 RMK A01 T02780194  RH  061%=      5-min Rain = 0
KMD1 242202Z 14011KT 28/20 A2994 RMK A01 T02780195  RH  061%=      5-min Rain = 0
KMD1 242203Z 14013KT 28/20 A2994 RMK A01 T02780198  RH  062%=      5-min Rain = 0
KMD1 242204Z 13014KT 28/20 A2994 RMK A01 T02770198  RH  062%=      5-min Rain = 0
KMD1 242205Z 14014KT 28/20 A2993 RMK A01 T02750198  RH  063%=      5-min Rain = 0
KMD1 242206Z 14013G19KT 28/20 A2993 RMK A01 T02750196  RH  062%=      5-min Rain = 0
KMD1 242207Z 14015KT 27/20 A2994 RMK A01 T02740197  RH  063%=      5-min Rain = 0
KMD1 242208Z 15014KT 27/19 A2993 RMK A01 T02740193  RH  061%=      5-min Rain = 0
KMD1 242209Z 14013KT 28/19 A2994 RMK A01 T02750193  RH  061%=      5-min Rain = 0
KMD1 242210Z 14012KT 28/19 A2994 RMK A01 T02750194  RH  061%=      5-min Rain = 0
KMD1 242211Z 15011G16KT 28/19 A2994 RMK A01 T02750194  RH  061%=      5-min Rain = 0
KMD1 242212Z 14012KT 28/19 A2994 RMK A01 T02750193  RH  061%=      5-min Rain = 0
KMD1 242213Z 15010KT 28/19 A2994 RMK A01 T02750194  RH  061%=      5-min Rain = 0
KMD1 242214Z 15009KT 28/20 A2994 RMK A01 T02760195  RH  061%=      5-min Rain = 0
KMD1 242215Z 14010KT 28/20 A2994 RMK A01 T02760198  RH  063%=      5-min Rain = 0
KMD1 242216Z 15009KT 28/19 A2994 RMK A01 T02760194  RH  061%=      5-min Rain = 0
KMD1 242217Z 16008KT 28/20 A2994 RMK A01 T02770197  RH  062%=      5-min Rain = 0
KMD1 242218Z 16009KT 28/20 A2994 RMK A01 T02770196  RH  061%=      5-min Rain = 0
KMD1 242219Z 16012KT 28/19 A2994 RMK A01 T02780194  RH  060%=      5-min Rain = 0
KMD1 242220Z 16009KT 28/19 A2994 RMK A01 T02780193  RH  060%=      5-min Rain = 0
KMD1 242221Z 16008KT 28/20 A2994 RMK A01 T02780196  RH  061%=      5-min Rain = 0
KMD1 242222Z 17011KT 28/20 A2993 RMK A01 T02790196  RH  061%=      5-min Rain = 0
KMD1 242223Z 16011KT 28/19 A2993 RMK A01 T02790193  RH  060%=      5-min Rain = 0
KMD1 242224Z 16012KT 28/19 A2993 RMK A01 T02790193  RH  060%=      5-min Rain = 0
KMD1 242225Z 16009KT 28/20 A2993 RMK A01 T02790195  RH  060%=      5-min Rain = 0
KMD1 242226Z 15012G17KT 28/20 A2993 RMK A01 T02800197  RH  061%=      5-min Rain = 0
KMD1 242227Z 16014KT 28/19 A2993 RMK A01 T02790193  RH  059%=      5-min Rain = 0
KMD1 242228Z 15013KT 28/19 A2993 RMK A01 T02800193  RH  059%=      5-min Rain = 0
KMD1 242229Z 15015KT 28/19 A2993 RMK A01 T02800191  RH  058%=      5-min Rain = 0
KMD1 242230Z 15012KT 28/20 A2993 RMK A01 T02800196  RH  060%=      5-min Rain = 0
KMD1 242231Z 16013KT 28/20 A2993 RMK A01 T02800195  RH  060%=      5-min Rain = 0
KMD1 242232Z 15010KT 28/20 A2993 RMK A01 T02800195  RH  060%=      5-min Rain = 0
KMD1 242233Z 16010KT 28/20 A2993 RMK A01 T02800195  RH  060%=      5-min Rain = 0
KMD1 242234Z 16008KT 28/20 A2993 RMK A01 T02800198  RH  061%=      5-min Rain = 0
KMD1 242235Z 15008KT 28/20 A2993 RMK A01 T02800197  RH  061%=      5-min Rain = 0
KMD1 242236Z 16010G15KT 28/20 A2993 RMK A01 T02790195  RH  060%=      5-min Rain = 0
KMD1 242237Z 15012KT 28/19 A2993 RMK A01 T02800194  RH  059%=      5-min Rain = 0
KMD1 242238Z 14011KT 28/19 A2993 RMK A01 T02800194  RH  059%=      5-min Rain = 0
KMD1 242239Z 14012KT 28/20 A2993 RMK A01 T02800197  RH  061%=      5-min Rain = 0
KMD1 242240Z 15010KT 28/20 A2993 RMK A01 T02790199  RH  062%=      5-min Rain = 0
KMD1 242241Z 14011KT 28/20 A2993 RMK A01 T02780199  RH  062%=      5-min Rain = 0
KMD1 242242Z 15012KT 28/20 A2993 RMK A01 T02780198  RH  062%=      5-min Rain = 0
KMD1 242243Z 17013KT 28/19 A2993 RMK A01 T02780192  RH  060%=      5-min Rain = 0
KMD1 242244Z 16009KT 28/19 A2993 RMK A01 T02790194  RH  060%=      5-min Rain = 0
KMD1 242245Z 15009KT 28/20 A2993 RMK A01 T02800198  RH  061%=      5-min Rain = 0
KMD1 242246Z 15013KT 28/20 A2993 RMK A01 T02800196  RH  060%=      5-min Rain = 0
KMD1 242247Z 15011KT 28/20 A2993 RMK A01 T02790196  RH  061%=      5-min Rain = 0
KMD1 242248Z 15012KT 28/20 A2993 RMK A01 T02790197  RH  061%=      5-min Rain = 0
KMD1 242249Z 15009KT 28/20 A2993 RMK A01 T02780198  RH  062%=      5-min Rain = 0
KMD1 242250Z 16011KT 28/20 A2993 RMK A01 T02780198  RH  062%=      5-min Rain = 0
KMD1 242251Z 15012KT 28/19 A2993 RMK A01 T02770194  RH  061%=      5-min Rain = 0
KMD1 242252Z 15012KT 28/19 A2993 RMK A01 T02760194  RH  061%=      5-min Rain = 0
KMD1 242253Z 15012KT 28/19 A2992 RMK A01 T02770194  RH  061%=      5-min Rain = 0
KMD1 242254Z 16010KT 28/20 A2992 RMK A01 T02770196  RH  061%=      5-min Rain = 0
KMD1 242255Z 15010KT 28/19 A2992 RMK A01 T02760194  RH  061%=      5-min Rain = 0
KMD1 242256Z 15011KT 28/19 A2992 RMK A01 T02760193  RH  061%=      5-min Rain = 0
KMD1 242257Z 15012KT 28/19 A2992 RMK A01 T02760194  RH  061%=      5-min Rain = 0
KMD1 242258Z 14012KT 28/19 A2993 RMK A01 T02760194  RH  061%=      5-min Rain = 0
KMD1 242259Z 15011KT 28/19 A2993 RMK A01 T02750194  RH  061%=      5-min Rain = 0
KMD1 242300Z 16009KT 28/19 A2993 RMK A01 T02750192  RH  060%=      5-min Rain = 0
KMD1 242301Z 15009KT 28/19 A2993 RMK A01 T02760193  RH  061%=      5-min Rain = 0
KMD1 242302Z 15009KT 28/19 A2993 RMK A01 T02760193  RH  061%=      5-min Rain = 0
KMD1 242303Z 15009KT 28/20 A2993 RMK A01 T02760196  RH  062%=      5-min Rain = 0
KMD1 242304Z 16007KT 28/20 A2993 RMK A01 T02750195  RH  062%=      5-min Rain = 0
KMD1 242305Z 16007KT 28/19 A2993 RMK A01 T02760193  RH  061%=      5-min Rain = 0
KMD1 242306Z 15006KT 28/19 A2993 RMK A01 T02760193  RH  061%=      5-min Rain = 0
KMD1 242307Z 15005KT 28/20 A2993 RMK A01 T02760198  RH  062%=      5-min Rain = 0
KMD1 242308Z 15005KT 28/20 A2993 RMK A01 T02760198  RH  063%=      5-min Rain = 0
KMD1 242309Z 15008KT 28/20 A2993 RMK A01 T02760197  RH  062%=      5-min Rain = 0
KMD1 242310Z 15009KT 28/20 A2993 RMK A01 T02750195  RH  061%=      5-min Rain = 0
KMD1 242311Z 14007KT 28/20 A2993 RMK A01 T02760198  RH  063%=      5-min Rain = 0
KMD1 242312Z 15008KT 28/20 A2993 RMK A01 T02750198  RH  063%=      5-min Rain = 0
KMD1 242313Z 15008KT 27/20 A2993 RMK A01 T02740195  RH  062%=      5-min Rain = 0
KMD1 242314Z 15007KT 28/20 A2993 RMK A01 T02750197  RH  063%=      5-min Rain = 0
KMD1 242315Z 15007KT 28/20 A2993 RMK A01 T02750196  RH  062%=      5-min Rain = 0
KMD1 242316Z 15006KT 27/20 A2993 RMK A01 T02740197  RH  063%=      5-min Rain = 0
KMD1 242317Z 15007KT 28/20 A2993 RMK A01 T02750197  RH  062%=      5-min Rain = 0
KMD1 242318Z 15007KT 28/20 A2993 RMK A01 T02750196  RH  062%=      5-min Rain = 0
KMD1 242319Z 15007KT 28/20 A2993 RMK A01 T02750198  RH  063%=      5-min Rain = 0
KMD1 242320Z 15007KT 28/20 A2993 RMK A01 T02760200  RH  063%=      5-min Rain = 0
KMD1 242321Z 15006KT 28/20 A2993 RMK A01 T02750201  RH  064%=      5-min Rain = 0
KMD1 242322Z 15007KT 28/20 A2993 RMK A01 T02750198  RH  063%=      5-min Rain = 0
KMD1 242323Z 14009KT 28/20 A2993 RMK A01 T02750198  RH  063%=      5-min Rain = 0
KMD1 242324Z 14008KT 28/20 A2993 RMK A01 T02750197  RH  063%=      5-min Rain = 0
KMD1 242325Z 15008KT 27/20 A2993 RMK A01 T02740198  RH  063%=      5-min Rain = 0
KMD1 242326Z 15008KT 27/20 A2993 RMK A01 T02740197  RH  063%=      5-min Rain = 0
KMD1 242327Z 15010KT 27/20 A2993 RMK A01 T02740198  RH  063%=      5-min Rain = 0
KMD1 242328Z 15011KT 27/20 A2993 RMK A01 T02740195  RH  062%=      5-min Rain = 0
KMD1 242329Z 15009KT 27/20 A2993 RMK A01 T02740197  RH  063%=      5-min Rain = 0
KMD1 242330Z 15010KT 27/20 A2993 RMK A01 T02740196  RH  062%=      5-min Rain = 0
KMD1 242331Z 15011KT 27/20 A2993 RMK A01 T02740197  RH  063%=      5-min Rain = 0
KMD1 242332Z 15013KT 27/19 A2992 RMK A01 T02740193  RH  062%=      5-min Rain = 0
KMD1 242333Z 16009KT 27/19 A2992 RMK A01 T02740194  RH  062%=      5-min Rain = 0
KMD1 242334Z 15011G16KT 27/20 A2992 RMK A01 T02740196  RH  062%=      5-min Rain = 0
KMD1 242335Z 15012KT 27/19 A2992 RMK A01 T02740193  RH  061%=      5-min Rain = 0
KMD1 242336Z 15012KT 27/19 A2992 RMK A01 T02740193  RH  061%=      5-min Rain = 0
KMD1 242337Z 15011KT 28/19 A2992 RMK A01 T02750191  RH  060%=      5-min Rain = 0
KMD1 242338Z 15008KT 28/19 A2992 RMK A01 T02750194  RH  061%=      5-min Rain = 0
KMD1 242339Z 14009KT 28/20 A2992 RMK A01 T02750195  RH  062%=      5-min Rain = 0
KMD1 242340Z 14011KT 27/20 A2992 RMK A01 T02740196  RH  063%=      5-min Rain = 0
KMD1 242341Z 14010KT 27/20 A2992 RMK A01 T02730195  RH  062%=      5-min Rain = 0
KMD1 242342Z 15009KT 27/20 A2992 RMK A01 T02720195  RH  063%=      5-min Rain = 0
KMD1 242343Z 14009KT 27/20 A2992 RMK A01 T02720198  RH  064%=      5-min Rain = 0
KMD1 242344Z 14009KT 27/20 A2992 RMK A01 T02710196  RH  064%=      5-min Rain = 0
KMD1 242345Z 15009KT 27/19 A2992 RMK A01 T02700194  RH  063%=      5-min Rain = 0
KMD1 242346Z 15010KT 27/19 A2992 RMK A01 T02710194  RH  063%=      5-min Rain = 0
KMD1 242347Z 15008KT 27/20 A2992 RMK A01 T02720196  RH  063%=      5-min Rain = 0
KMD1 242348Z 15009KT 27/20 A2992 RMK A01 T02720196  RH  063%=      5-min Rain = 0
KMD1 242349Z 14008KT 27/20 A2992 RMK A01 T02720196  RH  063%=      5-min Rain = 0
KMD1 242350Z 15009KT 27/20 A2992 RMK A01 T02720197  RH  064%=      5-min Rain = 0
KMD1 242351Z 15007KT 27/20 A2992 RMK A01 T02710196  RH  063%=      5-min Rain = 0
KMD1 242352Z 15009KT 27/20 A2992 RMK A01 T02710196  RH  063%=      5-min Rain = 0
KMD1 242353Z 15008KT 27/20 A2993 RMK A01 T02710195  RH  063%=      5-min Rain = 0
KMD1 242354Z 15008KT 27/19 A2993 RMK A01 T02720194  RH  062%=      5-min Rain = 0
KMD1 242355Z 15007KT 27/20 A2993 RMK A01 T02720195  RH  063%=      5-min Rain = 0
KMD1 242356Z 14008KT 27/20 A2993 RMK A01 T02730196  RH  063%=      5-min Rain = 0
KMD1 242357Z 15007KT 27/20 A2993 RMK A01 T02720197  RH  064%=      5-min Rain = 0
KMD1 242358Z 15008KT 27/20 A2993 RMK A01 T02720196  RH  063%=      5-min Rain = 0
KMD1 242359Z 15007KT 27/20 A2993 RMK A01 T02710196  RH  063%=      5-min Rain = 0
KMD1 250000Z 15006KT 27/20 A2993 RMK A01 T02720199  RH  064%=      5-min Rain = 0
KMD1 250001Z 16007KT 27/20 A2993 RMK A01 T02710198  RH  064%=      5-min Rain = 0
KMD1 250002Z 15008KT 27/20 A2993 RMK A01 T02710198  RH  064%=      5-min Rain = 0
KMD1 250003Z 15008KT 27/20 A2993 RMK A01 T02710195  RH  063%=      5-min Rain = 0
KMD1 250004Z 15007KT 27/20 A2993 RMK A01 T02710197  RH  064%=      5-min Rain = 0
KMD1 250005Z 15008KT 27/20 A2993 RMK A01 T02710197  RH  064%=      5-min Rain = 0
KMD1 250006Z 15007KT 27/20 A2993 RMK A01 T02710196  RH  064%=      5-min Rain = 0
KMD1 250007Z 15007KT 27/20 A2993 RMK A01 T02710198  RH  064%=      5-min Rain = 0
KMD1 250008Z 15009KT 27/20 A2993 RMK A01 T02710196  RH  063%=      5-min Rain = 0
KMD1 250009Z 15008KT 27/20 A2993 RMK A01 T02710197  RH  064%=      5-min Rain = 0
KMD1 250010Z 15009KT 27/20 A2993 RMK A01 T02710198  RH  064%=      5-min Rain = 0
KMD1 250011Z 15007KT 27/20 A2993 RMK A01 T02700196  RH  064%=      5-min Rain = 0
KMD1 250012Z 14009KT 27/20 A2993 RMK A01 T02710199  RH  065%=      5-min Rain = 0
KMD1 250013Z 15010KT 27/20 A2993 RMK A01 T02700197  RH  064%=      5-min Rain = 0
KMD1 250014Z 15010KT 27/20 A2993 RMK A01 T02700196  RH  064%=      5-min Rain = 0
KMD1 250015Z 15010KT 27/20 A2992 RMK A01 T02690195  RH  064%=      5-min Rain = 0
KMD1 250016Z 15010KT 27/20 A2992 RMK A01 T02700195  RH  064%=      5-min Rain = 0
KMD1 250017Z 15010KT 27/20 A2992 RMK A01 T02710197  RH  064%=      5-min Rain = 0
KMD1 250018Z 15010KT 27/20 A2992 RMK A01 T02700196  RH  064%=      5-min Rain = 0
KMD1 250019Z 14008KT 27/20 A2992 RMK A01 T02700197  RH  064%=      5-min Rain = 0
KMD1 250020Z 15009KT 27/20 A2992 RMK A01 T02700197  RH  064%=      5-min Rain = 0
KMD1 250021Z 14009KT 27/20 A2992 RMK A01 T02700197  RH  064%=      5-min Rain = 0
KMD1 250022Z 14010KT 27/20 A2992 RMK A01 T02690198  RH  065%=      5-min Rain = 0
KMD1 250023Z 15007KT 27/20 A2992 RMK A01 T02680198  RH  065%=      5-min Rain = 0
KMD1 250024Z 14010KT 27/20 A2992 RMK A01 T02670198  RH  066%=      5-min Rain = 0
KMD1 250025Z 14009KT 27/20 A2992 RMK A01 T02670197  RH  066%=      5-min Rain = 0
KMD1 250026Z 14010KT 27/20 A2992 RMK A01 T02670196  RH  065%=      5-min Rain = 0
KMD1 250027Z 14010KT 27/20 A2992 RMK A01 T02670195  RH  064%=      5-min Rain = 0
KMD1 250028Z 14009KT 27/20 A2992 RMK A01 T02680196  RH  065%=      5-min Rain = 0
KMD1 250029Z 14010KT 27/20 A2992 RMK A01 T02680196  RH  065%=      5-min Rain = 0
KMD1 250030Z 14010KT 27/20 A2992 RMK A01 T02680195  RH  064%=      5-min Rain = 0
KMD1 250031Z 15009KT 27/20 A2992 RMK A01 T02680196  RH  065%=      5-min Rain = 0
KMD1 250032Z 15010KT 27/20 A2992 RMK A01 T02680196  RH  065%=      5-min Rain = 0
KMD1 250033Z 15010KT 27/19 A2992 RMK A01 T02670194  RH  064%=      5-min Rain = 0
KMD1 250034Z 14009KT 27/20 A2992 RMK A01 T02680195  RH  064%=      5-min Rain = 0
KMD1 250035Z 15008KT 27/20 A2992 RMK A01 T02680196  RH  065%=      5-min Rain = 0
KMD1 250036Z 15008KT 27/20 A2992 RMK A01 T02670196  RH  065%=      5-min Rain = 0
KMD1 250037Z 15009KT 27/20 A2992 RMK A01 T02670195  RH  065%=      5-min Rain = 0
KMD1 250038Z 14009KT 27/20 A2993 RMK A01 T02670195  RH  065%=      5-min Rain = 0
KMD1 250039Z 14009KT 27/20 A2993 RMK A01 T02670196  RH  065%=      5-min Rain = 0
KMD1 250040Z 15008KT 27/20 A2993 RMK A01 T02660195  RH  065%=      5-min Rain = 0
KMD1 250041Z 16008KT 27/20 A2993 RMK A01 T02660196  RH  065%=      5-min Rain = 0
KMD1 250042Z 14008KT 27/20 A2993 RMK A01 T02660196  RH  066%=      5-min Rain = 0
KMD1 250043Z 15009KT 27/20 A2993 RMK A01 T02650195  RH  065%=      5-min Rain = 0
KMD1 250044Z 15010KT 27/20 A2993 RMK A01 T02650195  RH  065%=      5-min Rain = 0
KMD1 250045Z 14009KT 27/19 A2993 RMK A01 T02650193  RH  065%=      5-min Rain = 0
KMD1 250046Z 15007KT 27/20 A2993 RMK A01 T02660195  RH  065%=      5-min Rain = 0
KMD1 250047Z 15008KT 27/20 A2993 RMK A01 T02660195  RH  065%=      5-min Rain = 0
KMD1 250048Z 15008KT 27/20 A2993 RMK A01 T02650195  RH  065%=      5-min Rain = 0
KMD1 250049Z 15007KT 27/19 A2993 RMK A01 T02650194  RH  065%=      5-min Rain = 0
KMD1 250050Z 15007KT 27/20 A2993 RMK A01 T02650195  RH  065%=      5-min Rain = 0
KMD1 250051Z 15006KT 27/20 A2993 RMK A01 T02650196  RH  066%=      5-min Rain = 0
KMD1 250052Z 15005KT 26/20 A2993 RMK A01 T02640196  RH  066%=      5-min Rain = 0
KMD1 250053Z 15007KT 26/20 A2993 RMK A01 T02630196  RH  066%=      5-min Rain = 0
KMD1 250054Z 15007KT 26/20 A2993 RMK A01 T02620195  RH  067%=      5-min Rain = 0
KMD1 250055Z 15008KT 26/19 A2993 RMK A01 T02620194  RH  066%=      5-min Rain = 0
KMD1 250056Z 15010KT 26/19 A2993 RMK A01 T02630193  RH  065%=      5-min Rain = 0
KMD1 250057Z 14008KT 26/19 A2993 RMK A01 T02640193  RH  065%=      5-min Rain = 0
KMD1 250058Z 16010G15KT 27/19 A2993 RMK A01 T02650193  RH  065%=      5-min Rain = 0
KMD1 250059Z 15010KT 27/19 A2993 RMK A01 T02650193  RH  064%=      5-min Rain = 0
KMD1 250100Z 15008KT 27/19 A2993 RMK A01 T02650194  RH  065%=      5-min Rain = 0
KMD1 250101Z 14009KT 27/19 A2993 RMK A01 T02650193  RH  065%=      5-min Rain = 0
KMD1 250102Z 15008KT 27/19 A2993 RMK A01 T02650194  RH  065%=      5-min Rain = 0
KMD1 250103Z 14009KT 26/19 A2993 RMK A01 T02640193  RH  065%=      5-min Rain = 0
KMD1 250104Z 14010KT 27/19 A2993 RMK A01 T02650194  RH  065%=      5-min Rain = 0
KMD1 250105Z 14012KT 26/19 A2992 RMK A01 T02640192  RH  064%=      5-min Rain = 0
KMD1 250106Z 14010KT 27/19 A2992 RMK A01 T02650192  RH  064%=      5-min Rain = 0
KMD1 250107Z 14009KT 27/19 A2992 RMK A01 T02660192  RH  064%=      5-min Rain = 0
KMD1 250108Z 14008KT 27/19 A2993 RMK A01 T02660193  RH  065%=      5-min Rain = 0
KMD1 250109Z 14008KT 27/19 A2993 RMK A01 T02650193  RH  065%=      5-min Rain = 0
KMD1 250110Z 14009KT 27/19 A2993 RMK A01 T02650193  RH  065%=      5-min Rain = 0
KMD1 250111Z 15007KT 26/19 A2993 RMK A01 T02640193  RH  065%=      5-min Rain = 0
KMD1 250112Z 14007KT 26/20 A2993 RMK A01 T02630195  RH  066%=      5-min Rain = 0
KMD1 250113Z 14009KT 26/19 A2993 RMK A01 T02610194  RH  066%=      5-min Rain = 0
KMD1 250114Z 14008KT 26/20 A2993 RMK A01 T02610195  RH  067%=      5-min Rain = 0
KMD1 250115Z 14009KT 26/19 A2993 RMK A01 T02600194  RH  067%=      5-min Rain = 0
KMD1 250116Z 14008KT 26/19 A2993 RMK A01 T02600193  RH  067%=      5-min Rain = 0
KMD1 250117Z 14008KT 26/19 A2992 RMK A01 T02600193  RH  067%=      5-min Rain = 0
KMD1 250118Z 14007KT 26/19 A2992 RMK A01 T02600194  RH  067%=      5-min Rain = 0
KMD1 250119Z 14007KT 26/19 A2992 RMK A01 T02590194  RH  067%=      5-min Rain = 0
KMD1 250120Z 14007KT 26/19 A2992 RMK A01 T02590194  RH  067%=      5-min Rain = 0
KMD1 250121Z 14007KT 26/19 A2992 RMK A01 T02590194  RH  067%=      5-min Rain = 0
KMD1 250122Z 15008KT 26/19 A2993 RMK A01 T02590194  RH  067%=      5-min Rain = 0
KMD1 250123Z 14008KT 26/19 A2993 RMK A01 T02580193  RH  067%=      5-min Rain = 0
KMD1 250124Z 14008KT 26/19 A2993 RMK A01 T02590193  RH  067%=      5-min Rain = 0
KMD1 250125Z 14008KT 26/19 A2993 RMK A01 T02590194  RH  067%=      5-min Rain = 0
KMD1 250126Z 14006KT 26/19 A2993 RMK A01 T02580194  RH  068%=      5-min Rain = 0
KMD1 250127Z 14006KT 26/19 A2993 RMK A01 T02580194  RH  068%=      5-min Rain = 0
KMD1 250128Z 14006KT 26/20 A2993 RMK A01 T02570195  RH  069%=      5-min Rain = 0
KMD1 250129Z 14006KT 26/19 A2993 RMK A01 T02560194  RH  069%=      5-min Rain = 0
KMD1 250130Z 14006KT 26/20 A2994 RMK A01 T02550195  RH  069%=      5-min Rain = 0
KMD1 250131Z 14007KT 25/19 A2994 RMK A01 T02540194  RH  069%=      5-min Rain = 0
KMD1 250132Z 14006KT 25/19 A2994 RMK A01 T02540193  RH  069%=      5-min Rain = 0
KMD1 250133Z 14008KT 26/19 A2994 RMK A01 T02550194  RH  069%=      5-min Rain = 0
KMD1 250134Z 14010KT 26/19 A2994 RMK A01 T02560193  RH  068%=      5-min Rain = 0
KMD1 250135Z 14007KT 26/19 A2994 RMK A01 T02580193  RH  068%=      5-min Rain = 0
KMD1 250136Z 14008KT 26/20 A2994 RMK A01 T02580195  RH  068%=      5-min Rain = 0
KMD1 250137Z 14008KT 26/19 A2993 RMK A01 T02570194  RH  068%=      5-min Rain = 0
KMD1 250138Z 14008KT 26/19 A2994 RMK A01 T02570194  RH  068%=      5-min Rain = 0
KMD1 250139Z 14009KT 26/19 A2994 RMK A01 T02570193  RH  068%=      5-min Rain = 0
KMD1 250140Z 14009KT 26/19 A2994 RMK A01 T02580194  RH  068%=      5-min Rain = 0
KMD1 250141Z 14008KT 26/19 A2994 RMK A01 T02580194  RH  068%=      5-min Rain = 0
KMD1 250142Z 14008KT 26/19 A2994 RMK A01 T02580194  RH  068%=      5-min Rain = 0
KMD1 250143Z 14008KT 26/19 A2994 RMK A01 T02570194  RH  068%=      5-min Rain = 0
KMD1 250144Z 15008KT 26/19 A2994 RMK A01 T02570194  RH  068%=      5-min Rain = 0
KMD1 250145Z 15010KT 26/19 A2994 RMK A01 T02570193  RH  068%=      5-min Rain = 0
KMD1 250146Z 14009KT 26/19 A2994 RMK A01 T02580193  RH  067%=      5-min Rain = 0
KMD1 250147Z 15010KT 26/19 A2994 RMK A01 T02590194  RH  067%=      5-min Rain = 0
KMD1 250148Z 15010KT 26/19 A2994 RMK A01 T02590193  RH  067%=      5-min Rain = 0
KMD1 250149Z 15009KT 26/19 A2994 RMK A01 T02590194  RH  067%=      5-min Rain = 0
KMD1 250150Z 15009KT 26/19 A2994 RMK A01 T02590194  RH  067%=      5-min Rain = 0
KMD1 250151Z 14009KT 26/19 A2994 RMK A01 T02590194  RH  068%=      5-min Rain = 0
KMD1 250152Z 14009KT 26/19 A2994 RMK A01 T02580194  RH  068%=      5-min Rain = 0
KMD1 250153Z 15009KT 26/19 A2995 RMK A01 T02580194  RH  068%=      5-min Rain = 0
KMD1 250154Z 15010KT 26/19 A2995 RMK A01 T02570194  RH  068%=      5-min Rain = 0
KMD1 250155Z 15010KT 26/19 A2995 RMK A01 T02580193  RH  068%=      5-min Rain = 0
KMD1 250156Z 15008KT 26/19 A2995 RMK A01 T02580194  RH  068%=      5-min Rain = 0
KMD1 250157Z 15008KT 26/19 A2995 RMK A01 T02580194  RH  068%=      5-min Rain = 0
KMD1 250158Z 15007KT 26/19 A2995 RMK A01 T02580194  RH  068%=      5-min Rain = 0
KMD1 250159Z 15008KT 26/20 A2995 RMK A01 T02570195  RH  068%=      5-min Rain = 0
KMD1 250200Z 15010KT 26/20 A2995 RMK A01 T02560195  RH  069%=      5-min Rain = 0
KMD1 250201Z 14008KT 26/19 A2995 RMK A01 T02560193  RH  068%=      5-min Rain = 0
KMD1 250202Z 15007KT 26/19 A2995 RMK A01 T02560194  RH  068%=      5-min Rain = 0
KMD1 250203Z 14007KT 26/19 A2995 RMK A01 T02560193  RH  068%=      5-min Rain = 0
KMD1 250204Z 14009KT 26/19 A2995 RMK A01 T02560193  RH  068%=      5-min Rain = 0
KMD1 250205Z 15009KT 26/19 A2995 RMK A01 T02570193  RH  068%=      5-min Rain = 0
KMD1 250206Z 15006KT 26/19 A2995 RMK A01 T02570194  RH  068%=      5-min Rain = 0
KMD1 250207Z 15006KT 26/20 A2995 RMK A01 T02560195  RH  069%=      5-min Rain = 0
KMD1 250208Z 15008KT 26/19 A2995 RMK A01 T02550194  RH  069%=      5-min Rain = 0
KMD1 250209Z 14009KT 25/19 A2995 RMK A01 T02540193  RH  069%=      5-min Rain = 0
KMD1 250210Z 15007KT 26/19 A2995 RMK A01 T02550193  RH  069%=      5-min Rain = 0
KMD1 250211Z 15007KT 26/19 A2995 RMK A01 T02560194  RH  069%=      5-min Rain = 0
KMD1 250212Z 15009KT 26/19 A2995 RMK A01 T02550194  RH  069%=      5-min Rain = 0
KMD1 250213Z 15009KT 26/19 A2995 RMK A01 T02560194  RH  069%=      5-min Rain = 0
KMD1 250214Z 15007KT 26/19 A2995 RMK A01 T02550194  RH  069%=      5-min Rain = 0
KMD1 250215Z 15008KT 26/19 A2995 RMK A01 T02550194  RH  069%=      5-min Rain = 0
KMD1 250216Z 15011KT 25/19 A2995 RMK A01 T02540194  RH  069%=      5-min Rain = 0
KMD1 250217Z 14008KT 26/19 A2995 RMK A01 T02550193  RH  069%=      5-min Rain = 0
KMD1 250218Z 15009KT 26/19 A2995 RMK A01 T02550194  RH  069%=      5-min Rain = 0
KMD1 250219Z 15009KT 26/19 A2995 RMK A01 T02550194  RH  069%=      5-min Rain = 0
KMD1 250220Z 15008KT 26/19 A2995 RMK A01 T02550194  RH  069%=      5-min Rain = 0
KMD1 250221Z 15010KT 26/19 A2995 RMK A01 T02550194  RH  069%=      5-min Rain = 0
KMD1 250222Z 15008KT 26/19 A2995 RMK A01 T02550193  RH  069%=      5-min Rain = 0
KMD1 250223Z 15007KT 26/19 A2995 RMK A01 T02550194  RH  069%=      5-min Rain = 0
KMD1 250224Z 15008KT 25/19 A2995 RMK A01 T02540194  RH  069%=      5-min Rain = 0
KMD1 250225Z 15007KT 25/19 A2995 RMK A01 T02540194  RH  070%=      5-min Rain = 0
KMD1 250226Z 14008KT 25/20 A2995 RMK A01 T02530195  RH  070%=      5-min Rain = 0
KMD1 250227Z 15010KT 25/19 A2995 RMK A01 T02520193  RH  070%=      5-min Rain = 0
KMD1 250228Z 14010KT 25/19 A2995 RMK A01 T02520193  RH  070%=      5-min Rain = 0
KMD1 250229Z 14010KT 25/19 A2995 RMK A01 T02520193  RH  070%=      5-min Rain = 0
KMD1 250230Z 15010KT 25/19 A2995 RMK A01 T02530193  RH  069%=      5-min Rain = 0
KMD1 250231Z 15008G13KT 25/19 A2995 RMK A01 T02530193  RH  069%=      5-min Rain = 0
KMD1 250232Z 14010G15KT 25/19 A2995 RMK A01 T02530193  RH  070%=      5-min Rain = 0
KMD1 250233Z 15012KT 25/19 A2995 RMK A01 T02530193  RH  069%=      5-min Rain = 0
KMD1 250234Z 14011KT 25/19 A2995 RMK A01 T02530192  RH  069%=      5-min Rain = 0
KMD1 250235Z 14011KT 25/19 A2995 RMK A01 T02530192  RH  069%=      5-min Rain = 0
KMD1 250236Z 14010KT 25/19 A2995 RMK A01 T02530192  RH  069%=      5-min Rain = 0
KMD1 250237Z 14011KT 25/19 A2995 RMK A01 T02530192  RH  069%=      5-min Rain = 0
KMD1 250238Z 14010KT 25/19 A2995 RMK A01 T02540192  RH  068%=      5-min Rain = 0
KMD1 250239Z 14012G17KT 25/19 A2995 RMK A01 T02540192  RH  068%=      5-min Rain = 0
KMD1 250240Z 14011KT 25/19 A2995 RMK A01 T02540192  RH  069%=      5-min Rain = 0
KMD1 250241Z 14010KT 25/19 A2995 RMK A01 T02530192  RH  069%=      5-min Rain = 0
KMD1 250242Z 15009KT 25/19 A2995 RMK A01 T02520192  RH  069%=      5-min Rain = 0
KMD1 250243Z 14010KT 25/19 A2995 RMK A01 T02520192  RH  069%=      5-min Rain = 0
KMD1 250244Z 14009KT 25/19 A2995 RMK A01 T02510192  RH  069%=      5-min Rain = 0
KMD1 250245Z 15011KT 25/19 A2995 RMK A01 T02510192  RH  070%=      5-min Rain = 0
KMD1 250246Z 15009KT 25/19 A2995 RMK A01 T02510191  RH  069%=      5-min Rain = 0
KMD1 250247Z 14010KT 25/19 A2995 RMK A01 T02510191  RH  069%=      5-min Rain = 0
KMD1 250248Z 14009KT 25/19 A2995 RMK A01 T02510191  RH  070%=      5-min Rain = 0
KMD1 250249Z 14009KT 25/19 A2995 RMK A01 T02500192  RH  070%=      5-min Rain = 0
KMD1 250250Z 14010KT 25/19 A2995 RMK A01 T02490192  RH  070%=      5-min Rain = 0
KMD1 250251Z 14009KT 25/19 A2995 RMK A01 T02490191  RH  070%=      5-min Rain = 0
KMD1 250252Z 14010KT 25/19 A2995 RMK A01 T02490190  RH  070%=      5-min Rain = 0
KMD1 250253Z 13010KT 25/19 A2995 RMK A01 T02500191  RH  070%=      5-min Rain = 0
KMD1 250254Z 14009KT 25/19 A2996 RMK A01 T02500191  RH  070%=      5-min Rain = 0
KMD1 250255Z 14010KT 25/19 A2996 RMK A01 T02500191  RH  070%=      5-min Rain = 0
KMD1 250256Z 13009KT 25/19 A2996 RMK A01 T02500191  RH  070%=      5-min Rain = 0
KMD1 250257Z 14009KT 25/19 A2996 RMK A01 T02500191  RH  070%=      5-min Rain = 0
KMD1 250258Z 14009KT 25/19 A2996 RMK A01 T02490191  RH  070%=      5-min Rain = 0
KMD1 250259Z 14009G14KT 25/19 A2996 RMK A01 T02490191  RH  070%=      5-min Rain = 0
KMD1 250300Z 15010KT 25/19 A2996 RMK A01 T02480190  RH  070%=      5-min Rain = 0
KMD1 250301Z 14009KT 25/19 A2996 RMK A01 T02480190  RH  070%=      5-min Rain = 0
KMD1 250302Z 15008KT 25/19 A2996 RMK A01 T02480191  RH  070%=      5-min Rain = 0
KMD1 250303Z 14008KT 25/19 A2996 RMK A01 T02480191  RH  071%=      5-min Rain = 0
KMD1 250304Z 15009KT 25/19 A2996 RMK A01 T02480190  RH  070%=      5-min Rain = 0
KMD1 250305Z 15008KT 25/19 A2996 RMK A01 T02480190  RH  070%=      5-min Rain = 0
KMD1 250306Z 15011KT 25/19 A2996 RMK A01 T02470190  RH  070%=      5-min Rain = 0
KMD1 250307Z 15009KT 25/19 A2996 RMK A01 T02480189  RH  070%=      5-min Rain = 0
KMD1 250308Z 15008KT 25/19 A2996 RMK A01 T02480190  RH  070%=      5-min Rain = 0
KMD1 250309Z 15010KT 25/19 A2997 RMK A01 T02470191  RH  071%=      5-min Rain = 0
KMD1 250310Z 15009KT 25/19 A2997 RMK A01 T02470189  RH  070%=      5-min Rain = 0
KMD1 250311Z 15010KT 25/19 A2996 RMK A01 T02470189  RH  070%=      5-min Rain = 0
KMD1 250312Z 15011KT 25/19 A2996 RMK A01 T02470190  RH  070%=      5-min Rain = 0
KMD1 250313Z 14011KT 25/19 A2996 RMK A01 T02470189  RH  070%=      5-min Rain = 0
KMD1 250314Z 14011KT 25/19 A2996 RMK A01 T02470189  RH  070%=      5-min Rain = 0
KMD1 250315Z 14010KT 25/19 A2996 RMK A01 T02480189  RH  070%=      5-min Rain = 0
KMD1 250316Z 14011KT 25/19 A2996 RMK A01 T02480190  RH  070%=      5-min Rain = 0
KMD1 250317Z 14010KT 25/19 A2996 RMK A01 T02470190  RH  070%=      5-min Rain = 0
KMD1 250318Z 14009KT 25/19 A2996 RMK A01 T02470190  RH  070%=      5-min Rain = 0
KMD1 250319Z 15009KT 25/19 A2996 RMK A01 T02470190  RH  070%=      5-min Rain = 0
KMD1 250320Z 15010KT 25/19 A2996 RMK A01 T02460190  RH  071%=      5-min Rain = 0
KMD1 250321Z 14011KT 25/19 A2996 RMK A01 T02450190  RH  071%=      5-min Rain = 0
KMD1 250322Z 13009KT 25/19 A2996 RMK A01 T02450189  RH  071%=      5-min Rain = 0
KMD1 250323Z 14007KT 25/19 A2996 RMK A01 T02450190  RH  071%=      5-min Rain = 0
KMD1 250324Z 14007KT 24/19 A2996 RMK A01 T02440190  RH  072%=      5-min Rain = 0
KMD1 250325Z 14008KT 24/19 A2996 RMK A01 T02430191  RH  072%=      5-min Rain = 0
KMD1 250326Z 13009KT 24/19 A2996 RMK A01 T02420190  RH  073%=      5-min Rain = 0
KMD1 250327Z 13007KT 24/19 A2996 RMK A01 T02420191  RH  073%=      5-min Rain = 0
KMD1 250328Z 12007KT 24/19 A2996 RMK A01 T02410192  RH  074%=      5-min Rain = 0
KMD1 250329Z 12007KT 24/19 A2996 RMK A01 T02390191  RH  075%=      5-min Rain = 0
KMD1 250330Z 12006KT 24/19 A2996 RMK A01 T02380192  RH  075%=      5-min Rain = 0
KMD1 250331Z 12006KT 24/19 A2996 RMK A01 T02370192  RH  076%=      5-min Rain = 0
KMD1 250332Z 13007KT 24/19 A2996 RMK A01 T02360192  RH  076%=      5-min Rain = 0
KMD1 250333Z 12007KT 24/19 A2997 RMK A01 T02360192  RH  076%=      5-min Rain = 0
KMD1 250334Z 14010KT 24/19 A2997 RMK A01 T02360192  RH  076%=      5-min Rain = 0
KMD1 250335Z 13007KT 24/19 A2996 RMK A01 T02370191  RH  076%=      5-min Rain = 0
KMD1 250336Z 14008KT 24/19 A2996 RMK A01 T02370192  RH  076%=      5-min Rain = 0
KMD1 250337Z 14009KT 24/19 A2996 RMK A01 T02370192  RH  076%=      5-min Rain = 0
KMD1 250338Z 14011KT 24/19 A2996 RMK A01 T02370191  RH  075%=      5-min Rain = 0
KMD1 250339Z 14010KT 24/19 A2996 RMK A01 T02390191  RH  074%=      5-min Rain = 0
KMD1 250340Z 15009KT 24/19 A2996 RMK A01 T02400191  RH  074%=      5-min Rain = 0
KMD1 250341Z 14008KT 24/19 A2996 RMK A01 T02400191  RH  074%=      5-min Rain = 0
KMD1 250342Z 15012KT 24/19 A2996 RMK A01 T02400191  RH  074%=      5-min Rain = 0
KMD1 250343Z 14012KT 24/19 A2996 RMK A01 T02410190  RH  073%=      5-min Rain = 0
KMD1 250344Z 14009KT 24/19 A2996 RMK A01 T02410190  RH  073%=      5-min Rain = 0
KMD1 250345Z 14009KT 24/19 A2997 RMK A01 T02410191  RH  074%=      5-min Rain = 0
KMD1 250346Z 15011KT 24/19 A2997 RMK A01 T02410191  RH  074%=      5-min Rain = 0
KMD1 250347Z 14012KT 24/19 A2997 RMK A01 T02410190  RH  074%=      5-min Rain = 0
KMD1 250348Z 15009KT 24/19 A2997 RMK A01 T02410191  RH  073%=      5-min Rain = 0
KMD1 250349Z 14010KT 24/19 A2997 RMK A01 T02410191  RH  074%=      5-min Rain = 0
KMD1 250350Z 14012KT 24/19 A2997 RMK A01 T02410190  RH  073%=      5-min Rain = 0
KMD1 250351Z 15009KT 24/19 A2997 RMK A01 T02410190  RH  073%=      5-min Rain = 0
KMD1 250352Z 14010KT 24/19 A2997 RMK A01 T02410191  RH  074%=      5-min Rain = 0
KMD1 250353Z 15009KT 24/19 A2997 RMK A01 T02400191  RH  074%=      5-min Rain = 0
KMD1 250354Z 15009KT 24/19 A2997 RMK A01 T02400191  RH  074%=      5-min Rain = 0
KMD1 250355Z 15008KT 24/19 A2997 RMK A01 T02400190  RH  074%=      5-min Rain = 0
KMD1 250356Z 15009KT 24/19 A2997 RMK A01 T02400190  RH  074%=      5-min Rain = 0
KMD1 250357Z 14007KT 24/19 A2997 RMK A01 T02400190  RH  074%=      5-min Rain = 0
KMD1 250358Z 14010KT 24/19 A2997 RMK A01 T02400190  RH  074%=      5-min Rain = 0
KMD1 250359Z 14009KT 24/19 A2997 RMK A01 T02400190  RH  074%=      5-min Rain = 0
KMD1 250400Z 14007KT 24/19 A2997 RMK A01 T02400190  RH  074%=      5-min Rain = 0
KMD1 250401Z 14006KT 24/19 A2997 RMK A01 T02390191  RH  074%=      5-min Rain = 0
KMD1 250402Z 14006KT 24/19 A2997 RMK A01 T02390191  RH  074%=      5-min Rain = 0
KMD1 250403Z 14005KT 24/19 A2997 RMK A01 T02380191  RH  075%=      5-min Rain = 0
KMD1 250404Z 13005KT 24/19 A2997 RMK A01 T02370191  RH  075%=      5-min Rain = 0
KMD1 250405Z 14006KT 24/19 A2997 RMK A01 T02360191  RH  076%=      5-min Rain = 0
KMD1 250406Z 12005KT 24/19 A2997 RMK A01 T02350191  RH  076%=      5-min Rain = 0
KMD1 250407Z 13006KT 23/19 A2997 RMK A01 T02340191  RH  077%=      5-min Rain = 0
KMD1 250408Z 13008KT 23/19 A2996 RMK A01 T02330191  RH  077%=      5-min Rain = 0
KMD1 250409Z 13008KT 23/19 A2996 RMK A01 T02320191  RH  078%=      5-min Rain = 0
KMD1 250410Z 13009KT 23/19 A2996 RMK A01 T02320190  RH  078%=      5-min Rain = 0
KMD1 250411Z 13009KT 23/19 A2996 RMK A01 T02320190  RH  077%=      5-min Rain = 0
KMD1 250412Z 14009KT 23/19 A2996 RMK A01 T02330190  RH  077%=      5-min Rain = 0
KMD1 250413Z 13009KT 23/19 A2996 RMK A01 T02330190  RH  077%=      5-min Rain = 0
KMD1 250414Z 13011KT 23/19 A2996 RMK A01 T02330190  RH  077%=      5-min Rain = 0
KMD1 250415Z 14011KT 23/19 A2996 RMK A01 T02330189  RH  076%=      5-min Rain = 0
KMD1 250416Z 14010KT 24/19 A2996 RMK A01 T02350189  RH  076%=      5-min Rain = 0
KMD1 250417Z 13009KT 24/19 A2996 RMK A01 T02360190  RH  076%=      5-min Rain = 0
KMD1 250418Z 13008KT 24/19 A2996 RMK A01 T02350190  RH  076%=      5-min Rain = 0
KMD1 250419Z 13011KT 23/19 A2996 RMK A01 T02340191  RH  076%=      5-min Rain = 0
KMD1 250420Z 15009KT 23/19 A2996 RMK A01 T02340190  RH  076%=      5-min Rain = 0
KMD1 250421Z 14009KT 23/19 A2996 RMK A01 T02340189  RH  076%=      5-min Rain = 0
KMD1 250422Z 14009KT 24/19 A2997 RMK A01 T02350190  RH  076%=      5-min Rain = 0
KMD1 250423Z 14010KT 24/19 A2997 RMK A01 T02350190  RH  076%=      5-min Rain = 0
KMD1 250424Z 14012KT 24/19 A2996 RMK A01 T02350189  RH  076%=      5-min Rain = 0
KMD1 250425Z 15012KT 24/19 A2996 RMK A01 T02350189  RH  075%=      5-min Rain = 0
KMD1 250426Z 13010KT 24/19 A2997 RMK A01 T02360189  RH  075%=      5-min Rain = 0
KMD1 250427Z 14014KT 24/19 A2997 RMK A01 T02360190  RH  075%=      5-min Rain = 0
KMD1 250428Z 14016KT 24/19 A2997 RMK A01 T02360189  RH  075%=      5-min Rain = 0
KMD1 250429Z 14012KT 24/19 A2997 RMK A01 T02370189  RH  075%=      5-min Rain = 0
KMD1 250430Z 14012KT 24/19 A2997 RMK A01 T02370189  RH  075%=      5-min Rain = 0
KMD1 250431Z 14012KT 24/19 A2997 RMK A01 T02370190  RH  075%=      5-min Rain = 0
KMD1 250432Z 15011KT 24/19 A2997 RMK A01 T02370189  RH  075%=      5-min Rain = 0
KMD1 250433Z 15014KT 24/19 A2997 RMK A01 T02360189  RH  075%=      5-min Rain = 0
KMD1 250434Z 14013KT 24/19 A2996 RMK A01 T02360189  RH  075%=      5-min Rain = 0
KMD1 250435Z 14012G17KT 24/19 A2996 RMK A01 T02370189  RH  075%=      5-min Rain = 0
KMD1 250436Z 13015G20KT 24/19 A2996 RMK A01 T02370189  RH  075%=      5-min Rain = 0
KMD1 250437Z 14017KT 24/19 A2996 RMK A01 T02360189  RH  075%=      5-min Rain = 0
KMD1 250438Z 14013KT 24/19 A2996 RMK A01 T02370189  RH  075%=      5-min Rain = 0
KMD1 250439Z 16010KT 24/19 A2997 RMK A01 T02370189  RH  074%=      5-min Rain = 0
KMD1 250440Z 14008G16KT 24/19 A2997 RMK A01 T02360190  RH  075%=      5-min Rain = 0
KMD1 250441Z 15012KT 24/19 A2997 RMK A01 T02360190  RH  075%=      5-min Rain = 0
KMD1 250442Z 14013G18KT 24/19 A2997 RMK A01 T02360189  RH  075%=      5-min Rain = 0
KMD1 250443Z 15013KT 24/19 A2997 RMK A01 T02360189  RH  075%=      5-min Rain = 0
KMD1 250444Z 15011KT 24/19 A2997 RMK A01 T02360189  RH  075%=      5-min Rain = 0
KMD1 250445Z 15014KT 24/19 A2997 RMK A01 T02370189  RH  075%=      5-min Rain = 0
KMD1 250446Z 14012KT 24/19 A2997 RMK A01 T02360189  RH  075%=      5-min Rain = 0
KMD1 250447Z 15015G21KT 24/19 A2996 RMK A01 T02360189  RH  075%=      5-min Rain = 0
KMD1 250448Z 15014KT 24/19 A2996 RMK A01 T02360189  RH  075%=      5-min Rain = 0
KMD1 250449Z 15015KT 24/19 A2996 RMK A01 T02360190  RH  075%=      5-min Rain = 0
KMD1 250450Z 15013KT 24/19 A2996 RMK A01 T02350189  RH  075%=      5-min Rain = 0
KMD1 250451Z 14012G17KT 24/19 A2996 RMK A01 T02350189  RH  075%=      5-min Rain = 0
KMD1 250452Z 15012KT 24/19 A2996 RMK A01 T02350189  RH  075%=      5-min Rain = 0
KMD1 250453Z 15014KT 24/19 A2996 RMK A01 T02350189  RH  076%=      5-min Rain = 0
KMD1 250454Z 15015G21KT 23/19 A2996 RMK A01 T02340189  RH  076%=      5-min Rain = 0
KMD1 250455Z 15015KT 23/19 A2996 RMK A01 T02340189  RH  076%=      5-min Rain = 0
KMD1 250456Z 15016G22KT 24/19 A2996 RMK A01 T02350189  RH  076%=      5-min Rain = 0
KMD1 250457Z 15014KT 24/19 A2996 RMK A01 T02350189  RH  076%=      5-min Rain = 0
KMD1 250458Z 15013KT 24/19 A2996 RMK A01 T02350189  RH  076%=      5-min Rain = 0
KMD1 250459Z 15016KT 23/19 A2996 RMK A01 T02340190  RH  076%=      5-min Rain = 0

Page generated in 0.1976 seconds.